<?xml version="1.0" encoding="UTF-8" standalone="no" ?>
<gpx xmlns="http://www.topografix.com/GPX/1/1" xmlns:xsi="http://www.w3.org/2001/XMLSchema-instance" xsi:schemaLocation="http://www.topografix.com/GPX/1/1 http://www.topografix.com/GPX/1/1/gpx.xsd" version="1.1" creator="VisuGPX - https://www.visugpx.com">
  <metadata>
    <name>Rando Nez de Boeuf 2012 - 27kms</name>
    <desc><![CDATA[Rando casse-pattes !]]></desc>
  </metadata>
  <trk>
    <name><![CDATA[2012-07-01 09:10]]></name>
    <desc><![CDATA[<h1>OruxMaps</h1><br /><hr align="center" width="480" style="height: 2px; width: 517px"/><h2>Nom: 2012-07-01 09:10</h2><br /><p>Temps de départ: 07/01/2012 09:10</p><p>Temps d'arrivée: 07/01/2012 11:55</p><p>Distance: 27,4 km (02:45)</p><p>Temps déplacement: 02:16</p><p>Vitesse moyenne: 9,9 km/h</p><p>Vitesse moyenne: 12,1 km/h</p><p>Vitess Max.: 29,9 km/h</p><p>Altitude minimale: 106 m</p><p>Altitude maximale: 175 m</p><p>Vitesse d'élévation: 312,5 m/h</p><p>Vitesse de descente: -535 m/h</p><p>Gain Altitude: 365 m</p><p>Perte Altitude: -386 m</p><p>Temps d'élévation: 01:10</p><p>Temps de descente: 00:43</p><hr align="center" width="480" style="height: 2px; width: 517px"/>]]></desc>
    <trkseg>
      <trkpt lat="48.38308" lon="2.37801">
        <ele>118.20001</ele>
        <time>2012-07-01T07:10:16Z</time>
      </trkpt>
      <trkpt lat="48.38288" lon="2.37811">
        <ele>108.627686</ele>
        <time>2012-07-01T07:10:47Z</time>
      </trkpt>
      <trkpt lat="48.38276" lon="2.37831">
        <ele>110.2206</ele>
        <time>2012-07-01T07:10:58Z</time>
      </trkpt>
      <trkpt lat="48.38264" lon="2.37853">
        <ele>110.218025</ele>
        <time>2012-07-01T07:11:23Z</time>
      </trkpt>
      <trkpt lat="48.38243" lon="2.37846">
        <ele>108.60559</ele>
        <time>2012-07-01T07:11:33Z</time>
      </trkpt>
      <trkpt lat="48.38225" lon="2.37843">
        <ele>107.71104</ele>
        <time>2012-07-01T07:11:39Z</time>
      </trkpt>
      <trkpt lat="48.38206" lon="2.37837">
        <ele>107.74606</ele>
        <time>2012-07-01T07:11:49Z</time>
      </trkpt>
      <trkpt lat="48.38186" lon="2.37832">
        <ele>107.422775</ele>
        <time>2012-07-01T07:11:56Z</time>
      </trkpt>
      <trkpt lat="48.38167" lon="2.3782">
        <ele>107.12689</ele>
        <time>2012-07-01T07:12:02Z</time>
      </trkpt>
      <trkpt lat="48.3815" lon="2.37805">
        <ele>107.274414</ele>
        <time>2012-07-01T07:12:08Z</time>
      </trkpt>
      <trkpt lat="48.3815" lon="2.37775">
        <ele>108.083466</ele>
        <time>2012-07-01T07:12:17Z</time>
      </trkpt>
      <trkpt lat="48.38152" lon="2.37748">
        <ele>108.61709</ele>
        <time>2012-07-01T07:12:25Z</time>
      </trkpt>
      <trkpt lat="48.3815" lon="2.37716">
        <ele>108.81802</ele>
        <time>2012-07-01T07:12:34Z</time>
      </trkpt>
      <trkpt lat="48.38139" lon="2.37694">
        <ele>109.27791</ele>
        <time>2012-07-01T07:12:37Z</time>
      </trkpt>
      <trkpt lat="48.38155" lon="2.37681">
        <ele>110.01083</ele>
        <time>2012-07-01T07:12:51Z</time>
      </trkpt>
      <trkpt lat="48.38174" lon="2.3768">
        <ele>110.18617</ele>
        <time>2012-07-01T07:12:56Z</time>
      </trkpt>
      <trkpt lat="48.38194" lon="2.37678">
        <ele>109.9714</ele>
        <time>2012-07-01T07:13:00Z</time>
      </trkpt>
      <trkpt lat="48.38214" lon="2.37677">
        <ele>110.14252</ele>
        <time>2012-07-01T07:13:04Z</time>
      </trkpt>
      <trkpt lat="48.38228" lon="2.37655">
        <ele>110.1986</ele>
        <time>2012-07-01T07:13:10Z</time>
      </trkpt>
      <trkpt lat="48.38227" lon="2.37623">
        <ele>109.41461</ele>
        <time>2012-07-01T07:13:15Z</time>
      </trkpt>
      <trkpt lat="48.38226" lon="2.37596">
        <ele>108.868286</ele>
        <time>2012-07-01T07:13:19Z</time>
      </trkpt>
      <trkpt lat="48.38226" lon="2.37564">
        <ele>109.00322</ele>
        <time>2012-07-01T07:13:24Z</time>
      </trkpt>
      <trkpt lat="48.38226" lon="2.37533">
        <ele>109.37323</ele>
        <time>2012-07-01T07:13:29Z</time>
      </trkpt>
      <trkpt lat="48.38225" lon="2.37504">
        <ele>109.97646</ele>
        <time>2012-07-01T07:13:34Z</time>
      </trkpt>
      <trkpt lat="48.38224" lon="2.3747">
        <ele>110.97908</ele>
        <time>2012-07-01T07:13:39Z</time>
      </trkpt>
      <trkpt lat="48.38224" lon="2.37441">
        <ele>112.21633</ele>
        <time>2012-07-01T07:13:44Z</time>
      </trkpt>
      <trkpt lat="48.38223" lon="2.37414">
        <ele>113.52604</ele>
        <time>2012-07-01T07:13:49Z</time>
      </trkpt>
      <trkpt lat="48.38223" lon="2.37385">
        <ele>114.788734</ele>
        <time>2012-07-01T07:13:55Z</time>
      </trkpt>
      <trkpt lat="48.38218" lon="2.37356">
        <ele>116.01243</ele>
        <time>2012-07-01T07:14:02Z</time>
      </trkpt>
      <trkpt lat="48.38209" lon="2.37333">
        <ele>116.76774</ele>
        <time>2012-07-01T07:14:08Z</time>
      </trkpt>
      <trkpt lat="48.382" lon="2.37309">
        <ele>117.32068</ele>
        <time>2012-07-01T07:14:14Z</time>
      </trkpt>
      <trkpt lat="48.3819" lon="2.37282">
        <ele>117.66992</ele>
        <time>2012-07-01T07:14:21Z</time>
      </trkpt>
      <trkpt lat="48.38182" lon="2.37258">
        <ele>117.87248</ele>
        <time>2012-07-01T07:14:27Z</time>
      </trkpt>
      <trkpt lat="48.3818" lon="2.37229">
        <ele>118.045044</ele>
        <time>2012-07-01T07:14:33Z</time>
      </trkpt>
      <trkpt lat="48.38179" lon="2.37199">
        <ele>117.81605</ele>
        <time>2012-07-01T07:14:38Z</time>
      </trkpt>
      <trkpt lat="48.38177" lon="2.37168">
        <ele>117.54971</ele>
        <time>2012-07-01T07:14:43Z</time>
      </trkpt>
      <trkpt lat="48.38173" lon="2.37138">
        <ele>117.77537</ele>
        <time>2012-07-01T07:14:48Z</time>
      </trkpt>
      <trkpt lat="48.38166" lon="2.37112">
        <ele>118.72775</ele>
        <time>2012-07-01T07:14:53Z</time>
      </trkpt>
      <trkpt lat="48.38155" lon="2.37084">
        <ele>119.87816</ele>
        <time>2012-07-01T07:14:59Z</time>
      </trkpt>
      <trkpt lat="48.38143" lon="2.37061">
        <ele>120.14774</ele>
        <time>2012-07-01T07:15:05Z</time>
      </trkpt>
      <trkpt lat="48.38128" lon="2.37042">
        <ele>119.52097</ele>
        <time>2012-07-01T07:15:11Z</time>
      </trkpt>
      <trkpt lat="48.38112" lon="2.37024">
        <ele>119.4787</ele>
        <time>2012-07-01T07:15:17Z</time>
      </trkpt>
      <trkpt lat="48.38096" lon="2.37007">
        <ele>119.80563</ele>
        <time>2012-07-01T07:15:23Z</time>
      </trkpt>
      <trkpt lat="48.38081" lon="2.36992">
        <ele>120.249695</ele>
        <time>2012-07-01T07:15:30Z</time>
      </trkpt>
      <trkpt lat="48.38065" lon="2.36979">
        <ele>120.20797</ele>
        <time>2012-07-01T07:15:38Z</time>
      </trkpt>
      <trkpt lat="48.38049" lon="2.36965">
        <ele>119.59083</ele>
        <time>2012-07-01T07:15:45Z</time>
      </trkpt>
      <trkpt lat="48.38033" lon="2.3695">
        <ele>121.462456</ele>
        <time>2012-07-01T07:15:54Z</time>
      </trkpt>
      <trkpt lat="48.38016" lon="2.36934">
        <ele>122.935585</ele>
        <time>2012-07-01T07:16:01Z</time>
      </trkpt>
      <trkpt lat="48.38" lon="2.36921">
        <ele>124.18814</ele>
        <time>2012-07-01T07:16:07Z</time>
      </trkpt>
      <trkpt lat="48.37984" lon="2.36905">
        <ele>124.90419</ele>
        <time>2012-07-01T07:16:13Z</time>
      </trkpt>
      <trkpt lat="48.37971" lon="2.36886">
        <ele>125.80697</ele>
        <time>2012-07-01T07:16:19Z</time>
      </trkpt>
      <trkpt lat="48.37958" lon="2.36865">
        <ele>126.561</ele>
        <time>2012-07-01T07:16:25Z</time>
      </trkpt>
      <trkpt lat="48.37947" lon="2.36844">
        <ele>127.45837</ele>
        <time>2012-07-01T07:16:29Z</time>
      </trkpt>
      <trkpt lat="48.37938" lon="2.3682">
        <ele>128.75449</ele>
        <time>2012-07-01T07:16:34Z</time>
      </trkpt>
      <trkpt lat="48.37932" lon="2.36794">
        <ele>129.82056</ele>
        <time>2012-07-01T07:16:39Z</time>
      </trkpt>
      <trkpt lat="48.37928" lon="2.36767">
        <ele>131.29337</ele>
        <time>2012-07-01T07:16:45Z</time>
      </trkpt>
      <trkpt lat="48.37921" lon="2.36737">
        <ele>132.4702</ele>
        <time>2012-07-01T07:16:52Z</time>
      </trkpt>
      <trkpt lat="48.37915" lon="2.3671">
        <ele>133.70367</ele>
        <time>2012-07-01T07:16:57Z</time>
      </trkpt>
      <trkpt lat="48.37906" lon="2.36685">
        <ele>135.08046</ele>
        <time>2012-07-01T07:17:02Z</time>
      </trkpt>
      <trkpt lat="48.37896" lon="2.36661">
        <ele>136.46329</ele>
        <time>2012-07-01T07:17:09Z</time>
      </trkpt>
      <trkpt lat="48.37888" lon="2.36633">
        <ele>136.76787</ele>
        <time>2012-07-01T07:17:16Z</time>
      </trkpt>
      <trkpt lat="48.37878" lon="2.36605">
        <ele>136.5451</ele>
        <time>2012-07-01T07:17:22Z</time>
      </trkpt>
      <trkpt lat="48.37865" lon="2.36583">
        <ele>136.51317</ele>
        <time>2012-07-01T07:17:29Z</time>
      </trkpt>
      <trkpt lat="48.37851" lon="2.36561">
        <ele>137.07983</ele>
        <time>2012-07-01T07:17:37Z</time>
      </trkpt>
      <trkpt lat="48.37837" lon="2.36538">
        <ele>138.47827</ele>
        <time>2012-07-01T07:17:45Z</time>
      </trkpt>
      <trkpt lat="48.37826" lon="2.36515">
        <ele>138.67947</ele>
        <time>2012-07-01T07:17:52Z</time>
      </trkpt>
      <trkpt lat="48.37815" lon="2.36491">
        <ele>138.9388</ele>
        <time>2012-07-01T07:17:59Z</time>
      </trkpt>
      <trkpt lat="48.37806" lon="2.36466">
        <ele>139.87172</ele>
        <time>2012-07-01T07:18:07Z</time>
      </trkpt>
      <trkpt lat="48.37801" lon="2.3644">
        <ele>141.28255</ele>
        <time>2012-07-01T07:18:15Z</time>
      </trkpt>
      <trkpt lat="48.37795" lon="2.36413">
        <ele>142.88113</ele>
        <time>2012-07-01T07:18:22Z</time>
      </trkpt>
      <trkpt lat="48.37793" lon="2.36385">
        <ele>144.99991</ele>
        <time>2012-07-01T07:18:30Z</time>
      </trkpt>
      <trkpt lat="48.3779" lon="2.36357">
        <ele>146.60336</ele>
        <time>2012-07-01T07:18:38Z</time>
      </trkpt>
      <trkpt lat="48.37781" lon="2.36333">
        <ele>146.87383</ele>
        <time>2012-07-01T07:18:49Z</time>
      </trkpt>
      <trkpt lat="48.37767" lon="2.36315">
        <ele>147.22572</ele>
        <time>2012-07-01T07:19:02Z</time>
      </trkpt>
      <trkpt lat="48.37758" lon="2.3629">
        <ele>147.78928</ele>
        <time>2012-07-01T07:19:18Z</time>
      </trkpt>
      <trkpt lat="48.37747" lon="2.36268">
        <ele>149.1003</ele>
        <time>2012-07-01T07:19:32Z</time>
      </trkpt>
      <trkpt lat="48.37738" lon="2.36245">
        <ele>151.50446</ele>
        <time>2012-07-01T07:19:45Z</time>
      </trkpt>
      <trkpt lat="48.37726" lon="2.36224">
        <ele>153.52582</ele>
        <time>2012-07-01T07:19:57Z</time>
      </trkpt>
      <trkpt lat="48.37715" lon="2.36202">
        <ele>155.58888</ele>
        <time>2012-07-01T07:20:08Z</time>
      </trkpt>
      <trkpt lat="48.37701" lon="2.3618">
        <ele>156.91672</ele>
        <time>2012-07-01T07:20:18Z</time>
      </trkpt>
      <trkpt lat="48.37684" lon="2.36167">
        <ele>158.40971</ele>
        <time>2012-07-01T07:20:27Z</time>
      </trkpt>
      <trkpt lat="48.37667" lon="2.36155">
        <ele>160.07234</ele>
        <time>2012-07-01T07:20:36Z</time>
      </trkpt>
      <trkpt lat="48.3765" lon="2.36144">
        <ele>161.7618</ele>
        <time>2012-07-01T07:20:46Z</time>
      </trkpt>
      <trkpt lat="48.37632" lon="2.36132">
        <ele>164.05402</ele>
        <time>2012-07-01T07:20:55Z</time>
      </trkpt>
      <trkpt lat="48.37614" lon="2.3612">
        <ele>164.55815</ele>
        <time>2012-07-01T07:21:04Z</time>
      </trkpt>
      <trkpt lat="48.37596" lon="2.36109">
        <ele>165.16042</ele>
        <time>2012-07-01T07:21:11Z</time>
      </trkpt>
      <trkpt lat="48.37578" lon="2.36098">
        <ele>165.96637</ele>
        <time>2012-07-01T07:21:18Z</time>
      </trkpt>
      <trkpt lat="48.3756" lon="2.36086">
        <ele>166.52666</ele>
        <time>2012-07-01T07:21:25Z</time>
      </trkpt>
      <trkpt lat="48.37542" lon="2.36075">
        <ele>167.21411</ele>
        <time>2012-07-01T07:21:32Z</time>
      </trkpt>
      <trkpt lat="48.37525" lon="2.36063">
        <ele>167.92847</ele>
        <time>2012-07-01T07:21:38Z</time>
      </trkpt>
      <trkpt lat="48.37506" lon="2.36051">
        <ele>168.4035</ele>
        <time>2012-07-01T07:21:44Z</time>
      </trkpt>
      <trkpt lat="48.37487" lon="2.36039">
        <ele>168.91843</ele>
        <time>2012-07-01T07:21:50Z</time>
      </trkpt>
      <trkpt lat="48.37469" lon="2.36026">
        <ele>169.33365</ele>
        <time>2012-07-01T07:21:56Z</time>
      </trkpt>
      <trkpt lat="48.3745" lon="2.36014">
        <ele>169.5282</ele>
        <time>2012-07-01T07:22:02Z</time>
      </trkpt>
      <trkpt lat="48.37431" lon="2.36001">
        <ele>169.64806</ele>
        <time>2012-07-01T07:22:08Z</time>
      </trkpt>
      <trkpt lat="48.37412" lon="2.35995">
        <ele>170.10071</ele>
        <time>2012-07-01T07:22:15Z</time>
      </trkpt>
      <trkpt lat="48.37414" lon="2.36023">
        <ele>169.18874</ele>
        <time>2012-07-01T07:23:25Z</time>
      </trkpt>
      <trkpt lat="48.37416" lon="2.36051">
        <ele>168.79243</ele>
        <time>2012-07-01T07:23:35Z</time>
      </trkpt>
      <trkpt lat="48.37415" lon="2.3608">
        <ele>168.59642</ele>
        <time>2012-07-01T07:23:41Z</time>
      </trkpt>
      <trkpt lat="48.37413" lon="2.36107">
        <ele>168.31494</ele>
        <time>2012-07-01T07:23:47Z</time>
      </trkpt>
      <trkpt lat="48.37413" lon="2.36134">
        <ele>168.31009</ele>
        <time>2012-07-01T07:23:52Z</time>
      </trkpt>
      <trkpt lat="48.37413" lon="2.36163">
        <ele>168.76196</ele>
        <time>2012-07-01T07:23:57Z</time>
      </trkpt>
      <trkpt lat="48.37412" lon="2.36192">
        <ele>169.29097</ele>
        <time>2012-07-01T07:24:02Z</time>
      </trkpt>
      <trkpt lat="48.37411" lon="2.36226">
        <ele>169.57042</ele>
        <time>2012-07-01T07:24:07Z</time>
      </trkpt>
      <trkpt lat="48.3741" lon="2.36259">
        <ele>169.63672</ele>
        <time>2012-07-01T07:24:12Z</time>
      </trkpt>
      <trkpt lat="48.3741" lon="2.36286">
        <ele>169.7378</ele>
        <time>2012-07-01T07:24:16Z</time>
      </trkpt>
      <trkpt lat="48.37408" lon="2.36318">
        <ele>169.79617</ele>
        <time>2012-07-01T07:24:21Z</time>
      </trkpt>
      <trkpt lat="48.37407" lon="2.36347">
        <ele>170.14</ele>
        <time>2012-07-01T07:24:26Z</time>
      </trkpt>
      <trkpt lat="48.37406" lon="2.36378">
        <ele>170.37415</ele>
        <time>2012-07-01T07:24:31Z</time>
      </trkpt>
      <trkpt lat="48.37405" lon="2.36405">
        <ele>170.46017</ele>
        <time>2012-07-01T07:24:35Z</time>
      </trkpt>
      <trkpt lat="48.37404" lon="2.36434">
        <ele>170.4624</ele>
        <time>2012-07-01T07:24:39Z</time>
      </trkpt>
      <trkpt lat="48.37404" lon="2.36463">
        <ele>170.33263</ele>
        <time>2012-07-01T07:24:43Z</time>
      </trkpt>
      <trkpt lat="48.37403" lon="2.36492">
        <ele>170.31032</ele>
        <time>2012-07-01T07:24:47Z</time>
      </trkpt>
      <trkpt lat="48.37402" lon="2.36522">
        <ele>170.30325</ele>
        <time>2012-07-01T07:24:51Z</time>
      </trkpt>
      <trkpt lat="48.37401" lon="2.36552">
        <ele>170.30103</ele>
        <time>2012-07-01T07:24:55Z</time>
      </trkpt>
      <trkpt lat="48.374" lon="2.36583">
        <ele>170.30031</ele>
        <time>2012-07-01T07:24:59Z</time>
      </trkpt>
      <trkpt lat="48.37399" lon="2.36613">
        <ele>170.19853</ele>
        <time>2012-07-01T07:25:03Z</time>
      </trkpt>
      <trkpt lat="48.37399" lon="2.36643">
        <ele>170.03783</ele>
        <time>2012-07-01T07:25:07Z</time>
      </trkpt>
      <trkpt lat="48.37398" lon="2.36674">
        <ele>169.8315</ele>
        <time>2012-07-01T07:25:11Z</time>
      </trkpt>
      <trkpt lat="48.37398" lon="2.36704">
        <ele>169.74162</ele>
        <time>2012-07-01T07:25:15Z</time>
      </trkpt>
      <trkpt lat="48.37397" lon="2.36734">
        <ele>169.73778</ele>
        <time>2012-07-01T07:25:19Z</time>
      </trkpt>
      <trkpt lat="48.37396" lon="2.36763">
        <ele>169.58539</ele>
        <time>2012-07-01T07:25:23Z</time>
      </trkpt>
      <trkpt lat="48.37395" lon="2.36793">
        <ele>169.3571</ele>
        <time>2012-07-01T07:25:27Z</time>
      </trkpt>
      <trkpt lat="48.37394" lon="2.36824">
        <ele>169.37628</ele>
        <time>2012-07-01T07:25:31Z</time>
      </trkpt>
      <trkpt lat="48.37393" lon="2.36854">
        <ele>169.65578</ele>
        <time>2012-07-01T07:25:35Z</time>
      </trkpt>
      <trkpt lat="48.37392" lon="2.36885">
        <ele>169.95984</ele>
        <time>2012-07-01T07:25:39Z</time>
      </trkpt>
      <trkpt lat="48.37392" lon="2.36915">
        <ele>170.30838</ele>
        <time>2012-07-01T07:25:43Z</time>
      </trkpt>
      <trkpt lat="48.37391" lon="2.36946">
        <ele>170.60928</ele>
        <time>2012-07-01T07:25:47Z</time>
      </trkpt>
      <trkpt lat="48.3739" lon="2.36976">
        <ele>170.85178</ele>
        <time>2012-07-01T07:25:51Z</time>
      </trkpt>
      <trkpt lat="48.37389" lon="2.37006">
        <ele>170.9531</ele>
        <time>2012-07-01T07:25:55Z</time>
      </trkpt>
      <trkpt lat="48.37388" lon="2.37038">
        <ele>170.87305</ele>
        <time>2012-07-01T07:25:59Z</time>
      </trkpt>
      <trkpt lat="48.37387" lon="2.37069">
        <ele>170.77975</ele>
        <time>2012-07-01T07:26:03Z</time>
      </trkpt>
      <trkpt lat="48.37386" lon="2.371">
        <ele>170.74985</ele>
        <time>2012-07-01T07:26:07Z</time>
      </trkpt>
      <trkpt lat="48.37384" lon="2.37132">
        <ele>170.52084</ele>
        <time>2012-07-01T07:26:11Z</time>
      </trkpt>
      <trkpt lat="48.37381" lon="2.37161">
        <ele>170.19957</ele>
        <time>2012-07-01T07:26:15Z</time>
      </trkpt>
      <trkpt lat="48.37378" lon="2.3719">
        <ele>169.85767</ele>
        <time>2012-07-01T07:26:19Z</time>
      </trkpt>
      <trkpt lat="48.37375" lon="2.37217">
        <ele>169.52997</ele>
        <time>2012-07-01T07:26:23Z</time>
      </trkpt>
      <trkpt lat="48.37373" lon="2.37246">
        <ele>169.1966</ele>
        <time>2012-07-01T07:26:27Z</time>
      </trkpt>
      <trkpt lat="48.3737" lon="2.37274">
        <ele>168.73016</ele>
        <time>2012-07-01T07:26:31Z</time>
      </trkpt>
      <trkpt lat="48.37367" lon="2.37302">
        <ele>167.90776</ele>
        <time>2012-07-01T07:26:37Z</time>
      </trkpt>
      <trkpt lat="48.37358" lon="2.37328">
        <ele>167.32518</ele>
        <time>2012-07-01T07:26:45Z</time>
      </trkpt>
      <trkpt lat="48.37337" lon="2.3734">
        <ele>165.96056</ele>
        <time>2012-07-01T07:26:50Z</time>
      </trkpt>
      <trkpt lat="48.37327" lon="2.37367">
        <ele>164.48792</ele>
        <time>2012-07-01T07:26:54Z</time>
      </trkpt>
      <trkpt lat="48.37319" lon="2.37395">
        <ele>163.60826</ele>
        <time>2012-07-01T07:26:59Z</time>
      </trkpt>
      <trkpt lat="48.37317" lon="2.37427">
        <ele>163.07332</ele>
        <time>2012-07-01T07:27:03Z</time>
      </trkpt>
      <trkpt lat="48.37316" lon="2.37456">
        <ele>161.74913</ele>
        <time>2012-07-01T07:27:08Z</time>
      </trkpt>
      <trkpt lat="48.37315" lon="2.37487">
        <ele>159.07689</ele>
        <time>2012-07-01T07:27:15Z</time>
      </trkpt>
      <trkpt lat="48.3731" lon="2.37514">
        <ele>157.05461</ele>
        <time>2012-07-01T07:27:21Z</time>
      </trkpt>
      <trkpt lat="48.3732" lon="2.37537">
        <ele>155.57018</ele>
        <time>2012-07-01T07:27:26Z</time>
      </trkpt>
      <trkpt lat="48.37337" lon="2.37553">
        <ele>154.92728</ele>
        <time>2012-07-01T07:27:30Z</time>
      </trkpt>
      <trkpt lat="48.37355" lon="2.37577">
        <ele>154.08365</ele>
        <time>2012-07-01T07:27:34Z</time>
      </trkpt>
      <trkpt lat="48.37357" lon="2.37604">
        <ele>153.3681</ele>
        <time>2012-07-01T07:27:37Z</time>
      </trkpt>
      <trkpt lat="48.37357" lon="2.37635">
        <ele>151.41153</ele>
        <time>2012-07-01T07:27:40Z</time>
      </trkpt>
      <trkpt lat="48.37356" lon="2.37664">
        <ele>145.8509</ele>
        <time>2012-07-01T07:27:44Z</time>
      </trkpt>
      <trkpt lat="48.37355" lon="2.37693">
        <ele>140.14189</ele>
        <time>2012-07-01T07:27:48Z</time>
      </trkpt>
      <trkpt lat="48.37358" lon="2.37726">
        <ele>136.07498</ele>
        <time>2012-07-01T07:27:52Z</time>
      </trkpt>
      <trkpt lat="48.37361" lon="2.37756">
        <ele>133.14413</ele>
        <time>2012-07-01T07:27:55Z</time>
      </trkpt>
      <trkpt lat="48.37361" lon="2.37785">
        <ele>130.71236</ele>
        <time>2012-07-01T07:27:58Z</time>
      </trkpt>
      <trkpt lat="48.37369" lon="2.37814">
        <ele>127.9375</ele>
        <time>2012-07-01T07:28:02Z</time>
      </trkpt>
      <trkpt lat="48.37378" lon="2.37838">
        <ele>125.95288</ele>
        <time>2012-07-01T07:28:06Z</time>
      </trkpt>
      <trkpt lat="48.37396" lon="2.37846">
        <ele>123.78471</ele>
        <time>2012-07-01T07:28:11Z</time>
      </trkpt>
      <trkpt lat="48.37419" lon="2.3784">
        <ele>123.0574</ele>
        <time>2012-07-01T07:28:16Z</time>
      </trkpt>
      <trkpt lat="48.37438" lon="2.37835">
        <ele>122.67598</ele>
        <time>2012-07-01T07:28:20Z</time>
      </trkpt>
      <trkpt lat="48.37457" lon="2.3783">
        <ele>122.293175</ele>
        <time>2012-07-01T07:28:24Z</time>
      </trkpt>
      <trkpt lat="48.37476" lon="2.37826">
        <ele>122.38847</ele>
        <time>2012-07-01T07:28:28Z</time>
      </trkpt>
      <trkpt lat="48.37495" lon="2.37821">
        <ele>122.41549</ele>
        <time>2012-07-01T07:28:32Z</time>
      </trkpt>
      <trkpt lat="48.37516" lon="2.37819">
        <ele>122.41559</ele>
        <time>2012-07-01T07:28:37Z</time>
      </trkpt>
      <trkpt lat="48.37537" lon="2.37827">
        <ele>123.064896</ele>
        <time>2012-07-01T07:28:44Z</time>
      </trkpt>
      <trkpt lat="48.37539" lon="2.37857">
        <ele>123.40867</ele>
        <time>2012-07-01T07:28:49Z</time>
      </trkpt>
      <trkpt lat="48.37538" lon="2.37888">
        <ele>122.83164</ele>
        <time>2012-07-01T07:28:53Z</time>
      </trkpt>
      <trkpt lat="48.37533" lon="2.37916">
        <ele>121.367424</ele>
        <time>2012-07-01T07:28:57Z</time>
      </trkpt>
      <trkpt lat="48.37516" lon="2.3793">
        <ele>120.55579</ele>
        <time>2012-07-01T07:29:03Z</time>
      </trkpt>
      <trkpt lat="48.37509" lon="2.37957">
        <ele>120.96034</ele>
        <time>2012-07-01T07:29:12Z</time>
      </trkpt>
      <trkpt lat="48.37499" lon="2.37981">
        <ele>119.56891</ele>
        <time>2012-07-01T07:29:17Z</time>
      </trkpt>
      <trkpt lat="48.37481" lon="2.37991">
        <ele>118.29628</ele>
        <time>2012-07-01T07:29:25Z</time>
      </trkpt>
      <trkpt lat="48.37458" lon="2.37994">
        <ele>117.62927</ele>
        <time>2012-07-01T07:29:31Z</time>
      </trkpt>
      <trkpt lat="48.37439" lon="2.38007">
        <ele>116.98504</ele>
        <time>2012-07-01T07:29:35Z</time>
      </trkpt>
      <trkpt lat="48.37426" lon="2.38032">
        <ele>115.80816</ele>
        <time>2012-07-01T07:29:39Z</time>
      </trkpt>
      <trkpt lat="48.37412" lon="2.38058">
        <ele>115.0686</ele>
        <time>2012-07-01T07:29:43Z</time>
      </trkpt>
      <trkpt lat="48.37396" lon="2.38082">
        <ele>114.31271</ele>
        <time>2012-07-01T07:29:47Z</time>
      </trkpt>
      <trkpt lat="48.37383" lon="2.38105">
        <ele>112.68021</ele>
        <time>2012-07-01T07:29:51Z</time>
      </trkpt>
      <trkpt lat="48.37371" lon="2.38127">
        <ele>111.40154</ele>
        <time>2012-07-01T07:29:55Z</time>
      </trkpt>
      <trkpt lat="48.37358" lon="2.38148">
        <ele>110.71612</ele>
        <time>2012-07-01T07:29:59Z</time>
      </trkpt>
      <trkpt lat="48.37342" lon="2.38171">
        <ele>110.549225</ele>
        <time>2012-07-01T07:30:04Z</time>
      </trkpt>
      <trkpt lat="48.37329" lon="2.38193">
        <ele>110.485886</ele>
        <time>2012-07-01T07:30:08Z</time>
      </trkpt>
      <trkpt lat="48.37316" lon="2.38213">
        <ele>110.41429</ele>
        <time>2012-07-01T07:30:12Z</time>
      </trkpt>
      <trkpt lat="48.37306" lon="2.38242">
        <ele>110.228355</ele>
        <time>2012-07-01T07:30:16Z</time>
      </trkpt>
      <trkpt lat="48.37295" lon="2.38269">
        <ele>110.30702</ele>
        <time>2012-07-01T07:30:20Z</time>
      </trkpt>
      <trkpt lat="48.37278" lon="2.38281">
        <ele>110.49727</ele>
        <time>2012-07-01T07:30:25Z</time>
      </trkpt>
      <trkpt lat="48.37257" lon="2.38274">
        <ele>110.187805</ele>
        <time>2012-07-01T07:30:29Z</time>
      </trkpt>
      <trkpt lat="48.37238" lon="2.38265">
        <ele>109.59653</ele>
        <time>2012-07-01T07:30:33Z</time>
      </trkpt>
      <trkpt lat="48.3722" lon="2.38267">
        <ele>109.17</ele>
        <time>2012-07-01T07:30:37Z</time>
      </trkpt>
      <trkpt lat="48.37202" lon="2.38255">
        <ele>108.779686</ele>
        <time>2012-07-01T07:30:43Z</time>
      </trkpt>
      <trkpt lat="48.37187" lon="2.38241">
        <ele>109.561745</ele>
        <time>2012-07-01T07:30:46Z</time>
      </trkpt>
      <trkpt lat="48.37169" lon="2.38221">
        <ele>110.442184</ele>
        <time>2012-07-01T07:30:51Z</time>
      </trkpt>
      <trkpt lat="48.37148" lon="2.38214">
        <ele>111.72553</ele>
        <time>2012-07-01T07:30:56Z</time>
      </trkpt>
      <trkpt lat="48.37126" lon="2.38221">
        <ele>112.51475</ele>
        <time>2012-07-01T07:31:01Z</time>
      </trkpt>
      <trkpt lat="48.37109" lon="2.38243">
        <ele>113.08201</ele>
        <time>2012-07-01T07:31:05Z</time>
      </trkpt>
      <trkpt lat="48.37091" lon="2.38251">
        <ele>112.91032</ele>
        <time>2012-07-01T07:31:09Z</time>
      </trkpt>
      <trkpt lat="48.3707" lon="2.38254">
        <ele>112.33998</ele>
        <time>2012-07-01T07:31:13Z</time>
      </trkpt>
      <trkpt lat="48.37052" lon="2.38258">
        <ele>111.80913</ele>
        <time>2012-07-01T07:31:17Z</time>
      </trkpt>
      <trkpt lat="48.37034" lon="2.38264">
        <ele>111.59796</ele>
        <time>2012-07-01T07:31:22Z</time>
      </trkpt>
      <trkpt lat="48.37024" lon="2.3829">
        <ele>111.27678</ele>
        <time>2012-07-01T07:31:28Z</time>
      </trkpt>
      <trkpt lat="48.37024" lon="2.38323">
        <ele>110.80474</ele>
        <time>2012-07-01T07:31:33Z</time>
      </trkpt>
      <trkpt lat="48.37023" lon="2.38351">
        <ele>111.20932</ele>
        <time>2012-07-01T07:31:37Z</time>
      </trkpt>
      <trkpt lat="48.37024" lon="2.38382">
        <ele>111.19044</ele>
        <time>2012-07-01T07:31:41Z</time>
      </trkpt>
      <trkpt lat="48.37025" lon="2.38412">
        <ele>110.86533</ele>
        <time>2012-07-01T07:31:45Z</time>
      </trkpt>
      <trkpt lat="48.37025" lon="2.38444">
        <ele>110.93668</ele>
        <time>2012-07-01T07:31:49Z</time>
      </trkpt>
      <trkpt lat="48.37026" lon="2.38477">
        <ele>110.979965</ele>
        <time>2012-07-01T07:31:53Z</time>
      </trkpt>
      <trkpt lat="48.37027" lon="2.38512">
        <ele>111.10967</ele>
        <time>2012-07-01T07:31:57Z</time>
      </trkpt>
      <trkpt lat="48.37028" lon="2.38545">
        <ele>111.478065</ele>
        <time>2012-07-01T07:32:01Z</time>
      </trkpt>
      <trkpt lat="48.3703" lon="2.38578">
        <ele>112.09931</ele>
        <time>2012-07-01T07:32:05Z</time>
      </trkpt>
      <trkpt lat="48.37028" lon="2.38613">
        <ele>111.84938</ele>
        <time>2012-07-01T07:32:09Z</time>
      </trkpt>
      <trkpt lat="48.37027" lon="2.38643">
        <ele>111.89883</ele>
        <time>2012-07-01T07:32:13Z</time>
      </trkpt>
      <trkpt lat="48.37047" lon="2.38652">
        <ele>112.417984</ele>
        <time>2012-07-01T07:32:20Z</time>
      </trkpt>
      <trkpt lat="48.37065" lon="2.38649">
        <ele>112.23654</ele>
        <time>2012-07-01T07:32:24Z</time>
      </trkpt>
      <trkpt lat="48.37084" lon="2.38643">
        <ele>112.80999</ele>
        <time>2012-07-01T07:32:28Z</time>
      </trkpt>
      <trkpt lat="48.37105" lon="2.38633">
        <ele>114.163895</ele>
        <time>2012-07-01T07:32:33Z</time>
      </trkpt>
      <trkpt lat="48.37124" lon="2.38625">
        <ele>115.399124</ele>
        <time>2012-07-01T07:32:37Z</time>
      </trkpt>
      <trkpt lat="48.37144" lon="2.38632">
        <ele>116.3169</ele>
        <time>2012-07-01T07:32:41Z</time>
      </trkpt>
      <trkpt lat="48.37164" lon="2.38638">
        <ele>115.372154</ele>
        <time>2012-07-01T07:32:45Z</time>
      </trkpt>
      <trkpt lat="48.37184" lon="2.38654">
        <ele>114.7558</ele>
        <time>2012-07-01T07:32:50Z</time>
      </trkpt>
      <trkpt lat="48.372" lon="2.38669">
        <ele>115.20906</ele>
        <time>2012-07-01T07:32:54Z</time>
      </trkpt>
      <trkpt lat="48.37216" lon="2.38691">
        <ele>115.3787</ele>
        <time>2012-07-01T07:32:59Z</time>
      </trkpt>
      <trkpt lat="48.37228" lon="2.38712">
        <ele>114.83997</ele>
        <time>2012-07-01T07:33:04Z</time>
      </trkpt>
      <trkpt lat="48.37243" lon="2.38728">
        <ele>114.10705</ele>
        <time>2012-07-01T07:33:09Z</time>
      </trkpt>
      <trkpt lat="48.37258" lon="2.38746">
        <ele>113.916306</ele>
        <time>2012-07-01T07:33:13Z</time>
      </trkpt>
      <trkpt lat="48.37277" lon="2.38758">
        <ele>113.91531</ele>
        <time>2012-07-01T07:33:17Z</time>
      </trkpt>
      <trkpt lat="48.37294" lon="2.38771">
        <ele>113.86149</ele>
        <time>2012-07-01T07:33:21Z</time>
      </trkpt>
      <trkpt lat="48.37311" lon="2.38783">
        <ele>113.95618</ele>
        <time>2012-07-01T07:33:25Z</time>
      </trkpt>
      <trkpt lat="48.37331" lon="2.38797">
        <ele>113.85591</ele>
        <time>2012-07-01T07:33:30Z</time>
      </trkpt>
      <trkpt lat="48.3735" lon="2.38809">
        <ele>114.08103</ele>
        <time>2012-07-01T07:33:35Z</time>
      </trkpt>
      <trkpt lat="48.37369" lon="2.3882">
        <ele>113.78085</ele>
        <time>2012-07-01T07:33:40Z</time>
      </trkpt>
      <trkpt lat="48.37389" lon="2.38832">
        <ele>113.102585</ele>
        <time>2012-07-01T07:33:45Z</time>
      </trkpt>
      <trkpt lat="48.37405" lon="2.38843">
        <ele>113.582466</ele>
        <time>2012-07-01T07:33:49Z</time>
      </trkpt>
      <trkpt lat="48.37426" lon="2.38857">
        <ele>114.45579</ele>
        <time>2012-07-01T07:33:54Z</time>
      </trkpt>
      <trkpt lat="48.37447" lon="2.3887">
        <ele>114.14684</ele>
        <time>2012-07-01T07:33:59Z</time>
      </trkpt>
      <trkpt lat="48.37464" lon="2.3888">
        <ele>113.74646</ele>
        <time>2012-07-01T07:34:03Z</time>
      </trkpt>
      <trkpt lat="48.37472" lon="2.38907">
        <ele>113.05616</ele>
        <time>2012-07-01T07:34:11Z</time>
      </trkpt>
      <trkpt lat="48.37463" lon="2.38933">
        <ele>112.236946</ele>
        <time>2012-07-01T07:34:17Z</time>
      </trkpt>
      <trkpt lat="48.37457" lon="2.38958">
        <ele>112.65668</ele>
        <time>2012-07-01T07:34:23Z</time>
      </trkpt>
      <trkpt lat="48.37449" lon="2.38985">
        <ele>113.574615</ele>
        <time>2012-07-01T07:34:31Z</time>
      </trkpt>
      <trkpt lat="48.37448" lon="2.39015">
        <ele>114.1487</ele>
        <time>2012-07-01T07:34:38Z</time>
      </trkpt>
      <trkpt lat="48.37462" lon="2.39039">
        <ele>114.00506</ele>
        <time>2012-07-01T07:34:45Z</time>
      </trkpt>
      <trkpt lat="48.3748" lon="2.39057">
        <ele>113.62015</ele>
        <time>2012-07-01T07:34:50Z</time>
      </trkpt>
      <trkpt lat="48.37496" lon="2.3908">
        <ele>113.86406</ele>
        <time>2012-07-01T07:34:55Z</time>
      </trkpt>
      <trkpt lat="48.37509" lon="2.39105">
        <ele>114.5614</ele>
        <time>2012-07-01T07:35:00Z</time>
      </trkpt>
      <trkpt lat="48.37522" lon="2.3913">
        <ele>115.3344</ele>
        <time>2012-07-01T07:35:05Z</time>
      </trkpt>
      <trkpt lat="48.37535" lon="2.39154">
        <ele>116.13102</ele>
        <time>2012-07-01T07:35:10Z</time>
      </trkpt>
      <trkpt lat="48.37548" lon="2.39177">
        <ele>117.2095</ele>
        <time>2012-07-01T07:35:15Z</time>
      </trkpt>
      <trkpt lat="48.37565" lon="2.39197">
        <ele>117.490234</ele>
        <time>2012-07-01T07:35:20Z</time>
      </trkpt>
      <trkpt lat="48.37581" lon="2.39212">
        <ele>117.26917</ele>
        <time>2012-07-01T07:35:24Z</time>
      </trkpt>
      <trkpt lat="48.37598" lon="2.39231">
        <ele>117.30978</ele>
        <time>2012-07-01T07:35:28Z</time>
      </trkpt>
      <trkpt lat="48.37611" lon="2.39253">
        <ele>117.57691</ele>
        <time>2012-07-01T07:35:32Z</time>
      </trkpt>
      <trkpt lat="48.37618" lon="2.39282">
        <ele>117.55517</ele>
        <time>2012-07-01T07:35:37Z</time>
      </trkpt>
      <trkpt lat="48.37624" lon="2.39311">
        <ele>117.597176</ele>
        <time>2012-07-01T07:35:42Z</time>
      </trkpt>
      <trkpt lat="48.37633" lon="2.39337">
        <ele>117.870804</ele>
        <time>2012-07-01T07:35:47Z</time>
      </trkpt>
      <trkpt lat="48.37642" lon="2.39362">
        <ele>118.5879</ele>
        <time>2012-07-01T07:35:52Z</time>
      </trkpt>
      <trkpt lat="48.37653" lon="2.39383">
        <ele>119.03589</ele>
        <time>2012-07-01T07:35:57Z</time>
      </trkpt>
      <trkpt lat="48.37664" lon="2.39406">
        <ele>119.50885</ele>
        <time>2012-07-01T07:36:03Z</time>
      </trkpt>
      <trkpt lat="48.37675" lon="2.39427">
        <ele>120.817955</ele>
        <time>2012-07-01T07:36:09Z</time>
      </trkpt>
      <trkpt lat="48.37684" lon="2.39452">
        <ele>120.771355</ele>
        <time>2012-07-01T07:36:15Z</time>
      </trkpt>
      <trkpt lat="48.37697" lon="2.39476">
        <ele>120.784584</ele>
        <time>2012-07-01T07:36:22Z</time>
      </trkpt>
      <trkpt lat="48.37708" lon="2.39499">
        <ele>121.86998</ele>
        <time>2012-07-01T07:36:29Z</time>
      </trkpt>
      <trkpt lat="48.37721" lon="2.39523">
        <ele>122.72666</ele>
        <time>2012-07-01T07:36:37Z</time>
      </trkpt>
      <trkpt lat="48.37729" lon="2.39547">
        <ele>122.63697</ele>
        <time>2012-07-01T07:36:44Z</time>
      </trkpt>
      <trkpt lat="48.37739" lon="2.39573">
        <ele>123.0602</ele>
        <time>2012-07-01T07:36:53Z</time>
      </trkpt>
      <trkpt lat="48.37749" lon="2.39597">
        <ele>123.80472</ele>
        <time>2012-07-01T07:37:03Z</time>
      </trkpt>
      <trkpt lat="48.37758" lon="2.39622">
        <ele>125.8041</ele>
        <time>2012-07-01T07:37:15Z</time>
      </trkpt>
      <trkpt lat="48.37768" lon="2.39646">
        <ele>127.71726</ele>
        <time>2012-07-01T07:37:27Z</time>
      </trkpt>
      <trkpt lat="48.37777" lon="2.39671">
        <ele>129.27246</ele>
        <time>2012-07-01T07:37:39Z</time>
      </trkpt>
      <trkpt lat="48.37786" lon="2.39696">
        <ele>131.17755</ele>
        <time>2012-07-01T07:37:52Z</time>
      </trkpt>
      <trkpt lat="48.37793" lon="2.39723">
        <ele>133.35585</ele>
        <time>2012-07-01T07:38:04Z</time>
      </trkpt>
      <trkpt lat="48.37801" lon="2.39748">
        <ele>136.3735</ele>
        <time>2012-07-01T07:38:16Z</time>
      </trkpt>
      <trkpt lat="48.37809" lon="2.39774">
        <ele>138.56734</ele>
        <time>2012-07-01T07:38:29Z</time>
      </trkpt>
      <trkpt lat="48.37813" lon="2.39802">
        <ele>140.71498</ele>
        <time>2012-07-01T07:38:42Z</time>
      </trkpt>
      <trkpt lat="48.37818" lon="2.39831">
        <ele>143.89182</ele>
        <time>2012-07-01T07:38:56Z</time>
      </trkpt>
      <trkpt lat="48.37822" lon="2.39858">
        <ele>147.06796</ele>
        <time>2012-07-01T07:39:08Z</time>
      </trkpt>
      <trkpt lat="48.3782" lon="2.39887">
        <ele>149.26468</ele>
        <time>2012-07-01T07:39:20Z</time>
      </trkpt>
      <trkpt lat="48.37826" lon="2.3992">
        <ele>151.10417</ele>
        <time>2012-07-01T07:39:35Z</time>
      </trkpt>
      <trkpt lat="48.37827" lon="2.39949">
        <ele>154.27576</ele>
        <time>2012-07-01T07:39:46Z</time>
      </trkpt>
      <trkpt lat="48.3783" lon="2.39976">
        <ele>156.35904</ele>
        <time>2012-07-01T07:39:55Z</time>
      </trkpt>
      <trkpt lat="48.37838" lon="2.40001">
        <ele>156.16264</ele>
        <time>2012-07-01T07:40:05Z</time>
      </trkpt>
      <trkpt lat="48.37848" lon="2.40027">
        <ele>157.0486</ele>
        <time>2012-07-01T07:40:16Z</time>
      </trkpt>
      <trkpt lat="48.37856" lon="2.40055">
        <ele>158.77235</ele>
        <time>2012-07-01T07:40:26Z</time>
      </trkpt>
      <trkpt lat="48.3786" lon="2.40081">
        <ele>160.24747</ele>
        <time>2012-07-01T07:40:34Z</time>
      </trkpt>
      <trkpt lat="48.37867" lon="2.40109">
        <ele>160.96695</ele>
        <time>2012-07-01T07:40:43Z</time>
      </trkpt>
      <trkpt lat="48.37871" lon="2.40136">
        <ele>160.5356</ele>
        <time>2012-07-01T07:40:50Z</time>
      </trkpt>
      <trkpt lat="48.37875" lon="2.40164">
        <ele>160.79494</ele>
        <time>2012-07-01T07:40:56Z</time>
      </trkpt>
      <trkpt lat="48.37878" lon="2.40193">
        <ele>161.8035</ele>
        <time>2012-07-01T07:41:03Z</time>
      </trkpt>
      <trkpt lat="48.37881" lon="2.40223">
        <ele>162.61742</ele>
        <time>2012-07-01T07:41:11Z</time>
      </trkpt>
      <trkpt lat="48.37889" lon="2.40251">
        <ele>162.58923</ele>
        <time>2012-07-01T07:41:18Z</time>
      </trkpt>
      <trkpt lat="48.37899" lon="2.40278">
        <ele>163.35768</ele>
        <time>2012-07-01T07:41:26Z</time>
      </trkpt>
      <trkpt lat="48.37913" lon="2.40295">
        <ele>164.22168</ele>
        <time>2012-07-01T07:41:34Z</time>
      </trkpt>
      <trkpt lat="48.37927" lon="2.40315">
        <ele>164.96371</ele>
        <time>2012-07-01T07:41:42Z</time>
      </trkpt>
      <trkpt lat="48.37942" lon="2.40335">
        <ele>165.2486</ele>
        <time>2012-07-01T07:41:50Z</time>
      </trkpt>
      <trkpt lat="48.37955" lon="2.40356">
        <ele>165.71481</ele>
        <time>2012-07-01T07:41:57Z</time>
      </trkpt>
      <trkpt lat="48.37969" lon="2.40378">
        <ele>166.20813</ele>
        <time>2012-07-01T07:42:04Z</time>
      </trkpt>
      <trkpt lat="48.37983" lon="2.40397">
        <ele>166.58214</ele>
        <time>2012-07-01T07:42:10Z</time>
      </trkpt>
      <trkpt lat="48.37998" lon="2.40415">
        <ele>166.83751</ele>
        <time>2012-07-01T07:42:16Z</time>
      </trkpt>
      <trkpt lat="48.38015" lon="2.4043">
        <ele>166.92892</ele>
        <time>2012-07-01T07:42:21Z</time>
      </trkpt>
      <trkpt lat="48.3803" lon="2.40444">
        <ele>167.17151</ele>
        <time>2012-07-01T07:42:26Z</time>
      </trkpt>
      <trkpt lat="48.38046" lon="2.40459">
        <ele>167.41454</ele>
        <time>2012-07-01T07:42:31Z</time>
      </trkpt>
      <trkpt lat="48.38061" lon="2.40474">
        <ele>167.885</ele>
        <time>2012-07-01T07:42:36Z</time>
      </trkpt>
      <trkpt lat="48.38076" lon="2.40495">
        <ele>168.74193</ele>
        <time>2012-07-01T07:42:42Z</time>
      </trkpt>
      <trkpt lat="48.38087" lon="2.40516">
        <ele>169.72963</ele>
        <time>2012-07-01T07:42:48Z</time>
      </trkpt>
      <trkpt lat="48.38101" lon="2.4054">
        <ele>170.77863</ele>
        <time>2012-07-01T07:42:55Z</time>
      </trkpt>
      <trkpt lat="48.38111" lon="2.40564">
        <ele>171.289</ele>
        <time>2012-07-01T07:43:01Z</time>
      </trkpt>
      <trkpt lat="48.3812" lon="2.40592">
        <ele>171.51964</ele>
        <time>2012-07-01T07:43:07Z</time>
      </trkpt>
      <trkpt lat="48.3813" lon="2.40619">
        <ele>171.72632</ele>
        <time>2012-07-01T07:43:13Z</time>
      </trkpt>
      <trkpt lat="48.38139" lon="2.40644">
        <ele>171.92754</ele>
        <time>2012-07-01T07:43:18Z</time>
      </trkpt>
      <trkpt lat="48.38148" lon="2.40672">
        <ele>172.27246</ele>
        <time>2012-07-01T07:43:23Z</time>
      </trkpt>
      <trkpt lat="48.38158" lon="2.40701">
        <ele>172.63438</ele>
        <time>2012-07-01T07:43:28Z</time>
      </trkpt>
      <trkpt lat="48.38168" lon="2.4073">
        <ele>172.97408</ele>
        <time>2012-07-01T07:43:33Z</time>
      </trkpt>
      <trkpt lat="48.38177" lon="2.40759">
        <ele>173.40039</ele>
        <time>2012-07-01T07:43:38Z</time>
      </trkpt>
      <trkpt lat="48.38187" lon="2.40787">
        <ele>172.50996</ele>
        <time>2012-07-01T07:43:43Z</time>
      </trkpt>
      <trkpt lat="48.38196" lon="2.40816">
        <ele>172.51222</ele>
        <time>2012-07-01T07:43:48Z</time>
      </trkpt>
      <trkpt lat="48.38205" lon="2.40844">
        <ele>173.05281</ele>
        <time>2012-07-01T07:43:53Z</time>
      </trkpt>
      <trkpt lat="48.38215" lon="2.40872">
        <ele>173.6759</ele>
        <time>2012-07-01T07:43:58Z</time>
      </trkpt>
      <trkpt lat="48.38223" lon="2.40896">
        <ele>173.92245</ele>
        <time>2012-07-01T07:44:02Z</time>
      </trkpt>
      <trkpt lat="48.38233" lon="2.40926">
        <ele>174.27779</ele>
        <time>2012-07-01T07:44:07Z</time>
      </trkpt>
      <trkpt lat="48.38242" lon="2.40955">
        <ele>174.9288</ele>
        <time>2012-07-01T07:44:12Z</time>
      </trkpt>
      <trkpt lat="48.38251" lon="2.40984">
        <ele>175.41434</ele>
        <time>2012-07-01T07:44:17Z</time>
      </trkpt>
      <trkpt lat="48.3826" lon="2.41011">
        <ele>175.6493</ele>
        <time>2012-07-01T07:44:22Z</time>
      </trkpt>
      <trkpt lat="48.38281" lon="2.4101">
        <ele>175.60062</ele>
        <time>2012-07-01T07:44:28Z</time>
      </trkpt>
      <trkpt lat="48.383" lon="2.41001">
        <ele>175.63599</ele>
        <time>2012-07-01T07:44:33Z</time>
      </trkpt>
      <trkpt lat="48.3832" lon="2.4099">
        <ele>175.86879</ele>
        <time>2012-07-01T07:44:38Z</time>
      </trkpt>
      <trkpt lat="48.38339" lon="2.40981">
        <ele>175.91107</ele>
        <time>2012-07-01T07:44:43Z</time>
      </trkpt>
      <trkpt lat="48.3836" lon="2.4097">
        <ele>175.78261</ele>
        <time>2012-07-01T07:44:48Z</time>
      </trkpt>
      <trkpt lat="48.38379" lon="2.4096">
        <ele>175.66832</ele>
        <time>2012-07-01T07:44:52Z</time>
      </trkpt>
      <trkpt lat="48.38399" lon="2.4095">
        <ele>175.66498</ele>
        <time>2012-07-01T07:44:56Z</time>
      </trkpt>
      <trkpt lat="48.38419" lon="2.40939">
        <ele>175.53775</ele>
        <time>2012-07-01T07:45:00Z</time>
      </trkpt>
      <trkpt lat="48.3844" lon="2.40929">
        <ele>175.22366</ele>
        <time>2012-07-01T07:45:04Z</time>
      </trkpt>
      <trkpt lat="48.38462" lon="2.40918">
        <ele>174.65633</ele>
        <time>2012-07-01T07:45:08Z</time>
      </trkpt>
      <trkpt lat="48.38484" lon="2.40907">
        <ele>174.13892</ele>
        <time>2012-07-01T07:45:12Z</time>
      </trkpt>
      <trkpt lat="48.38504" lon="2.40896">
        <ele>173.74513</ele>
        <time>2012-07-01T07:45:16Z</time>
      </trkpt>
      <trkpt lat="48.38526" lon="2.40883">
        <ele>173.1635</ele>
        <time>2012-07-01T07:45:20Z</time>
      </trkpt>
      <trkpt lat="48.38547" lon="2.4087">
        <ele>172.82166</ele>
        <time>2012-07-01T07:45:24Z</time>
      </trkpt>
      <trkpt lat="48.38567" lon="2.40857">
        <ele>172.55803</ele>
        <time>2012-07-01T07:45:28Z</time>
      </trkpt>
      <trkpt lat="48.38587" lon="2.40847">
        <ele>172.43126</ele>
        <time>2012-07-01T07:45:32Z</time>
      </trkpt>
      <trkpt lat="48.38606" lon="2.40838">
        <ele>172.56535</ele>
        <time>2012-07-01T07:45:36Z</time>
      </trkpt>
      <trkpt lat="48.38624" lon="2.4083">
        <ele>172.71521</ele>
        <time>2012-07-01T07:45:40Z</time>
      </trkpt>
      <trkpt lat="48.38642" lon="2.40821">
        <ele>172.70482</ele>
        <time>2012-07-01T07:45:44Z</time>
      </trkpt>
      <trkpt lat="48.3866" lon="2.40812">
        <ele>172.9398</ele>
        <time>2012-07-01T07:45:48Z</time>
      </trkpt>
      <trkpt lat="48.38677" lon="2.40803">
        <ele>173.0165</ele>
        <time>2012-07-01T07:45:52Z</time>
      </trkpt>
      <trkpt lat="48.38695" lon="2.408">
        <ele>173.1314</ele>
        <time>2012-07-01T07:45:56Z</time>
      </trkpt>
      <trkpt lat="48.38716" lon="2.40799">
        <ele>173.21585</ele>
        <time>2012-07-01T07:46:01Z</time>
      </trkpt>
      <trkpt lat="48.38734" lon="2.40799">
        <ele>173.3733</ele>
        <time>2012-07-01T07:46:06Z</time>
      </trkpt>
      <trkpt lat="48.38754" lon="2.40796">
        <ele>173.38782</ele>
        <time>2012-07-01T07:46:11Z</time>
      </trkpt>
      <trkpt lat="48.38775" lon="2.40791">
        <ele>173.48782</ele>
        <time>2012-07-01T07:46:16Z</time>
      </trkpt>
      <trkpt lat="48.38795" lon="2.40788">
        <ele>173.62544</ele>
        <time>2012-07-01T07:46:20Z</time>
      </trkpt>
      <trkpt lat="48.38815" lon="2.40784">
        <ele>173.78423</ele>
        <time>2012-07-01T07:46:24Z</time>
      </trkpt>
      <trkpt lat="48.38835" lon="2.40781">
        <ele>173.42743</ele>
        <time>2012-07-01T07:46:28Z</time>
      </trkpt>
      <trkpt lat="48.38856" lon="2.4078">
        <ele>173.10406</ele>
        <time>2012-07-01T07:46:33Z</time>
      </trkpt>
      <trkpt lat="48.38878" lon="2.40778">
        <ele>173.19815</ele>
        <time>2012-07-01T07:46:37Z</time>
      </trkpt>
      <trkpt lat="48.38897" lon="2.40777">
        <ele>172.89473</ele>
        <time>2012-07-01T07:46:41Z</time>
      </trkpt>
      <trkpt lat="48.38919" lon="2.40776">
        <ele>172.984</ele>
        <time>2012-07-01T07:46:46Z</time>
      </trkpt>
      <trkpt lat="48.38939" lon="2.40772">
        <ele>174.06671</ele>
        <time>2012-07-01T07:46:51Z</time>
      </trkpt>
      <trkpt lat="48.38957" lon="2.40766">
        <ele>173.888</ele>
        <time>2012-07-01T07:46:57Z</time>
      </trkpt>
      <trkpt lat="48.38977" lon="2.4076">
        <ele>172.77599</ele>
        <time>2012-07-01T07:47:03Z</time>
      </trkpt>
      <trkpt lat="48.38998" lon="2.4075">
        <ele>172.07365</ele>
        <time>2012-07-01T07:47:07Z</time>
      </trkpt>
      <trkpt lat="48.39021" lon="2.40741">
        <ele>171.7651</ele>
        <time>2012-07-01T07:47:11Z</time>
      </trkpt>
      <trkpt lat="48.3904" lon="2.40735">
        <ele>171.91435</ele>
        <time>2012-07-01T07:47:15Z</time>
      </trkpt>
      <trkpt lat="48.39059" lon="2.40731">
        <ele>172.61032</ele>
        <time>2012-07-01T07:47:20Z</time>
      </trkpt>
      <trkpt lat="48.39078" lon="2.40734">
        <ele>172.95872</ele>
        <time>2012-07-01T07:47:24Z</time>
      </trkpt>
      <trkpt lat="48.39096" lon="2.40744">
        <ele>172.88264</ele>
        <time>2012-07-01T07:47:28Z</time>
      </trkpt>
      <trkpt lat="48.39114" lon="2.40726">
        <ele>171.78049</ele>
        <time>2012-07-01T07:47:34Z</time>
      </trkpt>
      <trkpt lat="48.39123" lon="2.40701">
        <ele>170.22235</ele>
        <time>2012-07-01T07:47:38Z</time>
      </trkpt>
      <trkpt lat="48.3914" lon="2.40682">
        <ele>170.45981</ele>
        <time>2012-07-01T07:47:42Z</time>
      </trkpt>
      <trkpt lat="48.39154" lon="2.40655">
        <ele>170.91658</ele>
        <time>2012-07-01T07:47:46Z</time>
      </trkpt>
      <trkpt lat="48.39165" lon="2.40633">
        <ele>170.71638</ele>
        <time>2012-07-01T07:47:49Z</time>
      </trkpt>
      <trkpt lat="48.39177" lon="2.40612">
        <ele>169.60379</ele>
        <time>2012-07-01T07:47:52Z</time>
      </trkpt>
      <trkpt lat="48.39191" lon="2.40585">
        <ele>168.94339</ele>
        <time>2012-07-01T07:47:56Z</time>
      </trkpt>
      <trkpt lat="48.39204" lon="2.40558">
        <ele>168.67545</ele>
        <time>2012-07-01T07:48:00Z</time>
      </trkpt>
      <trkpt lat="48.39214" lon="2.40525">
        <ele>167.70901</ele>
        <time>2012-07-01T07:48:04Z</time>
      </trkpt>
      <trkpt lat="48.3922" lon="2.40493">
        <ele>166.32903</ele>
        <time>2012-07-01T07:48:08Z</time>
      </trkpt>
      <trkpt lat="48.39224" lon="2.40464">
        <ele>165.63145</ele>
        <time>2012-07-01T07:48:12Z</time>
      </trkpt>
      <trkpt lat="48.39229" lon="2.40436">
        <ele>165.29315</ele>
        <time>2012-07-01T07:48:16Z</time>
      </trkpt>
      <trkpt lat="48.39233" lon="2.40409">
        <ele>164.84923</ele>
        <time>2012-07-01T07:48:23Z</time>
      </trkpt>
      <trkpt lat="48.39238" lon="2.40378">
        <ele>164.55287</ele>
        <time>2012-07-01T07:48:30Z</time>
      </trkpt>
      <trkpt lat="48.39236" lon="2.40349">
        <ele>164.01791</ele>
        <time>2012-07-01T07:48:34Z</time>
      </trkpt>
      <trkpt lat="48.39236" lon="2.40318">
        <ele>162.8439</ele>
        <time>2012-07-01T07:48:39Z</time>
      </trkpt>
      <trkpt lat="48.39246" lon="2.40289">
        <ele>161.2365</ele>
        <time>2012-07-01T07:48:44Z</time>
      </trkpt>
      <trkpt lat="48.39256" lon="2.40256">
        <ele>159.24162</ele>
        <time>2012-07-01T07:48:48Z</time>
      </trkpt>
      <trkpt lat="48.39265" lon="2.40231">
        <ele>157.36252</ele>
        <time>2012-07-01T07:48:53Z</time>
      </trkpt>
      <trkpt lat="48.39279" lon="2.40213">
        <ele>153.1478</ele>
        <time>2012-07-01T07:49:01Z</time>
      </trkpt>
      <trkpt lat="48.39293" lon="2.40194">
        <ele>149.41481</ele>
        <time>2012-07-01T07:49:09Z</time>
      </trkpt>
      <trkpt lat="48.39308" lon="2.40174">
        <ele>146.68768</ele>
        <time>2012-07-01T07:49:16Z</time>
      </trkpt>
      <trkpt lat="48.39324" lon="2.40159">
        <ele>145.07123</ele>
        <time>2012-07-01T07:49:23Z</time>
      </trkpt>
      <trkpt lat="48.39338" lon="2.4014">
        <ele>143.2643</ele>
        <time>2012-07-01T07:49:29Z</time>
      </trkpt>
      <trkpt lat="48.39354" lon="2.40121">
        <ele>141.42737</ele>
        <time>2012-07-01T07:49:35Z</time>
      </trkpt>
      <trkpt lat="48.39366" lon="2.40093">
        <ele>138.1528</ele>
        <time>2012-07-01T07:49:39Z</time>
      </trkpt>
      <trkpt lat="48.39369" lon="2.40061">
        <ele>134.65656</ele>
        <time>2012-07-01T07:49:43Z</time>
      </trkpt>
      <trkpt lat="48.39365" lon="2.4003">
        <ele>131.86205</ele>
        <time>2012-07-01T07:49:47Z</time>
      </trkpt>
      <trkpt lat="48.39362" lon="2.39999">
        <ele>129.16756</ele>
        <time>2012-07-01T07:49:52Z</time>
      </trkpt>
      <trkpt lat="48.39335" lon="2.39974">
        <ele>123.09999</ele>
        <time>2012-07-01T07:51:20Z</time>
      </trkpt>
      <trkpt lat="48.39316" lon="2.39966">
        <ele>122.10542</ele>
        <time>2012-07-01T07:51:28Z</time>
      </trkpt>
      <trkpt lat="48.39286" lon="2.39952">
        <ele>121.709526</ele>
        <time>2012-07-01T07:51:43Z</time>
      </trkpt>
      <trkpt lat="48.39266" lon="2.39943">
        <ele>120.3844</ele>
        <time>2012-07-01T07:51:53Z</time>
      </trkpt>
      <trkpt lat="48.39246" lon="2.39948">
        <ele>120.1166</ele>
        <time>2012-07-01T07:52:00Z</time>
      </trkpt>
      <trkpt lat="48.3923" lon="2.3993">
        <ele>122.36291</ele>
        <time>2012-07-01T07:52:11Z</time>
      </trkpt>
      <trkpt lat="48.39232" lon="2.39903">
        <ele>122.3284</ele>
        <time>2012-07-01T07:52:16Z</time>
      </trkpt>
      <trkpt lat="48.39234" lon="2.39874">
        <ele>123.39191</ele>
        <time>2012-07-01T07:52:21Z</time>
      </trkpt>
      <trkpt lat="48.39241" lon="2.39845">
        <ele>124.82572</ele>
        <time>2012-07-01T07:52:26Z</time>
      </trkpt>
      <trkpt lat="48.39227" lon="2.39826">
        <ele>125.10924</ele>
        <time>2012-07-01T07:52:40Z</time>
      </trkpt>
      <trkpt lat="48.3919" lon="2.3982">
        <ele>125.25003</ele>
        <time>2012-07-01T07:53:18Z</time>
      </trkpt>
      <trkpt lat="48.39162" lon="2.39783">
        <ele>131.57501</ele>
        <time>2012-07-01T07:54:04Z</time>
      </trkpt>
      <trkpt lat="48.39163" lon="2.3975">
        <ele>140.025</ele>
        <time>2012-07-01T07:55:15Z</time>
      </trkpt>
      <trkpt lat="48.39169" lon="2.39721">
        <ele>141.07315</ele>
        <time>2012-07-01T07:55:24Z</time>
      </trkpt>
      <trkpt lat="48.39171" lon="2.39694">
        <ele>140.54243</ele>
        <time>2012-07-01T07:55:33Z</time>
      </trkpt>
      <trkpt lat="48.39172" lon="2.39665">
        <ele>139.67267</ele>
        <time>2012-07-01T07:55:39Z</time>
      </trkpt>
      <trkpt lat="48.39169" lon="2.39634">
        <ele>138.03482</ele>
        <time>2012-07-01T07:55:44Z</time>
      </trkpt>
      <trkpt lat="48.39165" lon="2.39607">
        <ele>137.61285</ele>
        <time>2012-07-01T07:55:49Z</time>
      </trkpt>
      <trkpt lat="48.39155" lon="2.39583">
        <ele>137.00485</ele>
        <time>2012-07-01T07:55:53Z</time>
      </trkpt>
      <trkpt lat="48.39162" lon="2.39558">
        <ele>134.96313</ele>
        <time>2012-07-01T07:56:07Z</time>
      </trkpt>
      <trkpt lat="48.39187" lon="2.39556">
        <ele>133.95003</ele>
        <time>2012-07-01T07:56:42Z</time>
      </trkpt>
      <trkpt lat="48.39201" lon="2.39534">
        <ele>126.40133</ele>
        <time>2012-07-01T07:56:56Z</time>
      </trkpt>
      <trkpt lat="48.39217" lon="2.39549">
        <ele>120.8143</ele>
        <time>2012-07-01T07:57:10Z</time>
      </trkpt>
      <trkpt lat="48.39232" lon="2.39567">
        <ele>117.71709</ele>
        <time>2012-07-01T07:57:19Z</time>
      </trkpt>
      <trkpt lat="48.39233" lon="2.39594">
        <ele>116.181915</ele>
        <time>2012-07-01T07:57:33Z</time>
      </trkpt>
      <trkpt lat="48.39245" lon="2.39631">
        <ele>117.419876</ele>
        <time>2012-07-01T07:57:57Z</time>
      </trkpt>
      <trkpt lat="48.39258" lon="2.39652">
        <ele>115.05613</ele>
        <time>2012-07-01T07:58:05Z</time>
      </trkpt>
      <trkpt lat="48.39261" lon="2.39682">
        <ele>115.494064</ele>
        <time>2012-07-01T07:58:12Z</time>
      </trkpt>
      <trkpt lat="48.39265" lon="2.39709">
        <ele>115.570854</ele>
        <time>2012-07-01T07:58:17Z</time>
      </trkpt>
      <trkpt lat="48.39271" lon="2.3974">
        <ele>115.61243</ele>
        <time>2012-07-01T07:58:23Z</time>
      </trkpt>
      <trkpt lat="48.39278" lon="2.39765">
        <ele>116.36737</ele>
        <time>2012-07-01T07:58:30Z</time>
      </trkpt>
      <trkpt lat="48.39291" lon="2.39784">
        <ele>116.43465</ele>
        <time>2012-07-01T07:58:35Z</time>
      </trkpt>
      <trkpt lat="48.39306" lon="2.398">
        <ele>115.23166</ele>
        <time>2012-07-01T07:58:40Z</time>
      </trkpt>
      <trkpt lat="48.39321" lon="2.39817">
        <ele>115.04321</ele>
        <time>2012-07-01T07:58:48Z</time>
      </trkpt>
      <trkpt lat="48.3934" lon="2.39812">
        <ele>114.55118</ele>
        <time>2012-07-01T07:58:52Z</time>
      </trkpt>
      <trkpt lat="48.3936" lon="2.39801">
        <ele>114.26712</ele>
        <time>2012-07-01T07:58:57Z</time>
      </trkpt>
      <trkpt lat="48.39379" lon="2.39792">
        <ele>113.33469</ele>
        <time>2012-07-01T07:59:02Z</time>
      </trkpt>
      <trkpt lat="48.39395" lon="2.39806">
        <ele>112.380905</ele>
        <time>2012-07-01T07:59:06Z</time>
      </trkpt>
      <trkpt lat="48.39411" lon="2.39823">
        <ele>112.140785</ele>
        <time>2012-07-01T07:59:11Z</time>
      </trkpt>
      <trkpt lat="48.39427" lon="2.39838">
        <ele>112.73254</ele>
        <time>2012-07-01T07:59:16Z</time>
      </trkpt>
      <trkpt lat="48.39445" lon="2.39858">
        <ele>113.302925</ele>
        <time>2012-07-01T07:59:21Z</time>
      </trkpt>
      <trkpt lat="48.3946" lon="2.39873">
        <ele>113.4685</ele>
        <time>2012-07-01T07:59:25Z</time>
      </trkpt>
      <trkpt lat="48.39479" lon="2.39891">
        <ele>113.58066</ele>
        <time>2012-07-01T07:59:29Z</time>
      </trkpt>
      <trkpt lat="48.39494" lon="2.39905">
        <ele>113.53958</ele>
        <time>2012-07-01T07:59:33Z</time>
      </trkpt>
      <trkpt lat="48.39512" lon="2.39919">
        <ele>114.318756</ele>
        <time>2012-07-01T08:00:54Z</time>
      </trkpt>
      <trkpt lat="48.39528" lon="2.39933">
        <ele>113.572266</ele>
        <time>2012-07-01T08:01:00Z</time>
      </trkpt>
      <trkpt lat="48.39546" lon="2.3995">
        <ele>113.16256</ele>
        <time>2012-07-01T08:01:05Z</time>
      </trkpt>
      <trkpt lat="48.39562" lon="2.39965">
        <ele>112.95948</ele>
        <time>2012-07-01T08:01:10Z</time>
      </trkpt>
      <trkpt lat="48.3958" lon="2.39975">
        <ele>112.34384</ele>
        <time>2012-07-01T08:01:13Z</time>
      </trkpt>
      <trkpt lat="48.39599" lon="2.39984">
        <ele>111.377785</ele>
        <time>2012-07-01T08:01:18Z</time>
      </trkpt>
      <trkpt lat="48.39605" lon="2.4001">
        <ele>110.255486</ele>
        <time>2012-07-01T08:01:27Z</time>
      </trkpt>
      <trkpt lat="48.39596" lon="2.40037">
        <ele>110.74922</ele>
        <time>2012-07-01T08:01:36Z</time>
      </trkpt>
      <trkpt lat="48.3959" lon="2.40065">
        <ele>110.71431</ele>
        <time>2012-07-01T08:01:43Z</time>
      </trkpt>
      <trkpt lat="48.39583" lon="2.40092">
        <ele>111.53572</ele>
        <time>2012-07-01T08:01:48Z</time>
      </trkpt>
      <trkpt lat="48.39577" lon="2.4012">
        <ele>112.20564</ele>
        <time>2012-07-01T08:01:53Z</time>
      </trkpt>
      <trkpt lat="48.3957" lon="2.40145">
        <ele>112.65241</ele>
        <time>2012-07-01T08:01:58Z</time>
      </trkpt>
      <trkpt lat="48.39562" lon="2.40175">
        <ele>114.89746</ele>
        <time>2012-07-01T08:02:05Z</time>
      </trkpt>
      <trkpt lat="48.39558" lon="2.40202">
        <ele>117.28557</ele>
        <time>2012-07-01T08:02:12Z</time>
      </trkpt>
      <trkpt lat="48.39576" lon="2.40204">
        <ele>117.734856</ele>
        <time>2012-07-01T08:02:17Z</time>
      </trkpt>
      <trkpt lat="48.39596" lon="2.40203">
        <ele>118.539154</ele>
        <time>2012-07-01T08:02:21Z</time>
      </trkpt>
      <trkpt lat="48.39618" lon="2.40202">
        <ele>119.10692</ele>
        <time>2012-07-01T08:02:25Z</time>
      </trkpt>
      <trkpt lat="48.3964" lon="2.40203">
        <ele>119.55649</ele>
        <time>2012-07-01T08:02:29Z</time>
      </trkpt>
      <trkpt lat="48.3966" lon="2.40207">
        <ele>119.551865</ele>
        <time>2012-07-01T08:02:33Z</time>
      </trkpt>
      <trkpt lat="48.39683" lon="2.40215">
        <ele>117.96211</ele>
        <time>2012-07-01T08:02:37Z</time>
      </trkpt>
      <trkpt lat="48.39702" lon="2.40212">
        <ele>116.72004</ele>
        <time>2012-07-01T08:02:41Z</time>
      </trkpt>
      <trkpt lat="48.39725" lon="2.40213">
        <ele>116.22212</ele>
        <time>2012-07-01T08:02:46Z</time>
      </trkpt>
      <trkpt lat="48.39745" lon="2.40221">
        <ele>115.80309</ele>
        <time>2012-07-01T08:02:50Z</time>
      </trkpt>
      <trkpt lat="48.39766" lon="2.40229">
        <ele>115.970505</ele>
        <time>2012-07-01T08:02:54Z</time>
      </trkpt>
      <trkpt lat="48.39788" lon="2.40238">
        <ele>116.28442</ele>
        <time>2012-07-01T08:02:58Z</time>
      </trkpt>
      <trkpt lat="48.39812" lon="2.40244">
        <ele>116.27202</ele>
        <time>2012-07-01T08:03:02Z</time>
      </trkpt>
      <trkpt lat="48.39831" lon="2.40245">
        <ele>116.252266</ele>
        <time>2012-07-01T08:03:05Z</time>
      </trkpt>
      <trkpt lat="48.3985" lon="2.40247">
        <ele>116.19548</ele>
        <time>2012-07-01T08:03:08Z</time>
      </trkpt>
      <trkpt lat="48.39873" lon="2.40248">
        <ele>115.54505</ele>
        <time>2012-07-01T08:03:12Z</time>
      </trkpt>
      <trkpt lat="48.39891" lon="2.40251">
        <ele>114.819016</ele>
        <time>2012-07-01T08:03:15Z</time>
      </trkpt>
      <trkpt lat="48.39909" lon="2.40257">
        <ele>114.19708</ele>
        <time>2012-07-01T08:03:18Z</time>
      </trkpt>
      <trkpt lat="48.39928" lon="2.40265">
        <ele>113.92065</ele>
        <time>2012-07-01T08:03:21Z</time>
      </trkpt>
      <trkpt lat="48.39945" lon="2.40272">
        <ele>113.37433</ele>
        <time>2012-07-01T08:03:24Z</time>
      </trkpt>
      <trkpt lat="48.39965" lon="2.4028">
        <ele>113.03917</ele>
        <time>2012-07-01T08:03:27Z</time>
      </trkpt>
      <trkpt lat="48.39985" lon="2.40284">
        <ele>113.13216</ele>
        <time>2012-07-01T08:03:30Z</time>
      </trkpt>
      <trkpt lat="48.40005" lon="2.40286">
        <ele>113.138565</ele>
        <time>2012-07-01T08:03:33Z</time>
      </trkpt>
      <trkpt lat="48.40024" lon="2.4029">
        <ele>113.022514</ele>
        <time>2012-07-01T08:03:36Z</time>
      </trkpt>
      <trkpt lat="48.40044" lon="2.40302">
        <ele>112.74658</ele>
        <time>2012-07-01T08:03:40Z</time>
      </trkpt>
      <trkpt lat="48.40055" lon="2.4033">
        <ele>111.681145</ele>
        <time>2012-07-01T08:03:44Z</time>
      </trkpt>
      <trkpt lat="48.40065" lon="2.40359">
        <ele>111.030754</ele>
        <time>2012-07-01T08:03:48Z</time>
      </trkpt>
      <trkpt lat="48.40073" lon="2.40388">
        <ele>110.37183</ele>
        <time>2012-07-01T08:03:52Z</time>
      </trkpt>
      <trkpt lat="48.4008" lon="2.40418">
        <ele>110.15671</ele>
        <time>2012-07-01T08:03:56Z</time>
      </trkpt>
      <trkpt lat="48.40087" lon="2.40447">
        <ele>110.23474</ele>
        <time>2012-07-01T08:04:00Z</time>
      </trkpt>
      <trkpt lat="48.40096" lon="2.40474">
        <ele>109.95864</ele>
        <time>2012-07-01T08:04:04Z</time>
      </trkpt>
      <trkpt lat="48.40104" lon="2.40499">
        <ele>109.99512</ele>
        <time>2012-07-01T08:04:08Z</time>
      </trkpt>
      <trkpt lat="48.40111" lon="2.40526">
        <ele>110.35421</ele>
        <time>2012-07-01T08:04:13Z</time>
      </trkpt>
      <trkpt lat="48.40123" lon="2.40553">
        <ele>110.2315</ele>
        <time>2012-07-01T08:04:18Z</time>
      </trkpt>
      <trkpt lat="48.40134" lon="2.4058">
        <ele>110.61352</ele>
        <time>2012-07-01T08:04:24Z</time>
      </trkpt>
      <trkpt lat="48.4015" lon="2.40604">
        <ele>111.27076</ele>
        <time>2012-07-01T08:04:30Z</time>
      </trkpt>
      <trkpt lat="48.40163" lon="2.40624">
        <ele>111.22629</ele>
        <time>2012-07-01T08:04:34Z</time>
      </trkpt>
      <trkpt lat="48.40177" lon="2.40642">
        <ele>110.70206</ele>
        <time>2012-07-01T08:04:38Z</time>
      </trkpt>
      <trkpt lat="48.40192" lon="2.40663">
        <ele>110.36925</ele>
        <time>2012-07-01T08:04:43Z</time>
      </trkpt>
      <trkpt lat="48.40207" lon="2.40682">
        <ele>110.095825</ele>
        <time>2012-07-01T08:04:48Z</time>
      </trkpt>
      <trkpt lat="48.40221" lon="2.40705">
        <ele>110.03868</ele>
        <time>2012-07-01T08:04:54Z</time>
      </trkpt>
      <trkpt lat="48.40236" lon="2.40725">
        <ele>110.66006</ele>
        <time>2012-07-01T08:04:59Z</time>
      </trkpt>
      <trkpt lat="48.40253" lon="2.40744">
        <ele>111.92236</ele>
        <time>2012-07-01T08:05:04Z</time>
      </trkpt>
      <trkpt lat="48.40269" lon="2.40762">
        <ele>112.69994</ele>
        <time>2012-07-01T08:05:09Z</time>
      </trkpt>
      <trkpt lat="48.40285" lon="2.4078">
        <ele>113.425385</ele>
        <time>2012-07-01T08:05:13Z</time>
      </trkpt>
      <trkpt lat="48.40299" lon="2.40797">
        <ele>113.53186</ele>
        <time>2012-07-01T08:05:17Z</time>
      </trkpt>
      <trkpt lat="48.40313" lon="2.40815">
        <ele>112.50405</ele>
        <time>2012-07-01T08:05:23Z</time>
      </trkpt>
      <trkpt lat="48.40331" lon="2.40828">
        <ele>113.64348</ele>
        <time>2012-07-01T08:05:27Z</time>
      </trkpt>
      <trkpt lat="48.40351" lon="2.40843">
        <ele>115.586296</ele>
        <time>2012-07-01T08:05:32Z</time>
      </trkpt>
      <trkpt lat="48.40367" lon="2.40857">
        <ele>115.97222</ele>
        <time>2012-07-01T08:05:36Z</time>
      </trkpt>
      <trkpt lat="48.40384" lon="2.40867">
        <ele>116.33418</ele>
        <time>2012-07-01T08:05:40Z</time>
      </trkpt>
      <trkpt lat="48.40403" lon="2.40878">
        <ele>116.893616</ele>
        <time>2012-07-01T08:05:44Z</time>
      </trkpt>
      <trkpt lat="48.40418" lon="2.40899">
        <ele>118.4479</ele>
        <time>2012-07-01T08:05:49Z</time>
      </trkpt>
      <trkpt lat="48.40432" lon="2.40923">
        <ele>120.434616</ele>
        <time>2012-07-01T08:05:54Z</time>
      </trkpt>
      <trkpt lat="48.40445" lon="2.409">
        <ele>120.73855</ele>
        <time>2012-07-01T08:06:04Z</time>
      </trkpt>
      <trkpt lat="48.40446" lon="2.40871">
        <ele>120.81959</ele>
        <time>2012-07-01T08:06:09Z</time>
      </trkpt>
      <trkpt lat="48.40451" lon="2.40842">
        <ele>120.95651</ele>
        <time>2012-07-01T08:06:14Z</time>
      </trkpt>
      <trkpt lat="48.40453" lon="2.40809">
        <ele>120.44602</ele>
        <time>2012-07-01T08:06:19Z</time>
      </trkpt>
      <trkpt lat="48.40458" lon="2.40782">
        <ele>119.968834</ele>
        <time>2012-07-01T08:06:24Z</time>
      </trkpt>
      <trkpt lat="48.40459" lon="2.4075">
        <ele>119.326965</ele>
        <time>2012-07-01T08:06:29Z</time>
      </trkpt>
      <trkpt lat="48.40463" lon="2.40721">
        <ele>119.108925</ele>
        <time>2012-07-01T08:06:33Z</time>
      </trkpt>
      <trkpt lat="48.40467" lon="2.40692">
        <ele>119.642845</ele>
        <time>2012-07-01T08:06:38Z</time>
      </trkpt>
      <trkpt lat="48.40469" lon="2.40662">
        <ele>119.60558</ele>
        <time>2012-07-01T08:06:43Z</time>
      </trkpt>
      <trkpt lat="48.4047" lon="2.40631">
        <ele>119.17798</ele>
        <time>2012-07-01T08:06:48Z</time>
      </trkpt>
      <trkpt lat="48.40474" lon="2.40602">
        <ele>119.44751</ele>
        <time>2012-07-01T08:06:53Z</time>
      </trkpt>
      <trkpt lat="48.40479" lon="2.40572">
        <ele>120.678345</ele>
        <time>2012-07-01T08:07:00Z</time>
      </trkpt>
      <trkpt lat="48.40498" lon="2.40579">
        <ele>119.85403</ele>
        <time>2012-07-01T08:07:07Z</time>
      </trkpt>
      <trkpt lat="48.40514" lon="2.40593">
        <ele>117.51121</ele>
        <time>2012-07-01T08:07:13Z</time>
      </trkpt>
      <trkpt lat="48.40533" lon="2.40598">
        <ele>116.20639</ele>
        <time>2012-07-01T08:07:20Z</time>
      </trkpt>
      <trkpt lat="48.40552" lon="2.40593">
        <ele>116.39501</ele>
        <time>2012-07-01T08:07:28Z</time>
      </trkpt>
      <trkpt lat="48.40573" lon="2.40586">
        <ele>118.41456</ele>
        <time>2012-07-01T08:07:35Z</time>
      </trkpt>
      <trkpt lat="48.4059" lon="2.40575">
        <ele>120.51089</ele>
        <time>2012-07-01T08:07:43Z</time>
      </trkpt>
      <trkpt lat="48.40609" lon="2.40557">
        <ele>120.992035</ele>
        <time>2012-07-01T08:07:48Z</time>
      </trkpt>
      <trkpt lat="48.40628" lon="2.40548">
        <ele>122.514984</ele>
        <time>2012-07-01T08:07:55Z</time>
      </trkpt>
      <trkpt lat="48.40647" lon="2.40541">
        <ele>125.987495</ele>
        <time>2012-07-01T08:08:05Z</time>
      </trkpt>
      <trkpt lat="48.40665" lon="2.40535">
        <ele>125.53445</ele>
        <time>2012-07-01T08:08:12Z</time>
      </trkpt>
      <trkpt lat="48.40681" lon="2.40523">
        <ele>125.17208</ele>
        <time>2012-07-01T08:08:19Z</time>
      </trkpt>
      <trkpt lat="48.40724" lon="2.40496">
        <ele>126.57492</ele>
        <time>2012-07-01T08:08:50Z</time>
      </trkpt>
      <trkpt lat="48.40742" lon="2.4049">
        <ele>131.5</ele>
        <time>2012-07-01T08:09:58Z</time>
      </trkpt>
      <trkpt lat="48.40781" lon="2.40473">
        <ele>137.47499</ele>
        <time>2012-07-01T08:10:41Z</time>
      </trkpt>
      <trkpt lat="48.40818" lon="2.40466">
        <ele>146.00002</ele>
        <time>2012-07-01T08:11:50Z</time>
      </trkpt>
      <trkpt lat="48.40849" lon="2.405">
        <ele>155.65001</ele>
        <time>2012-07-01T08:12:36Z</time>
      </trkpt>
      <trkpt lat="48.40887" lon="2.40512">
        <ele>159.3994</ele>
        <time>2012-07-01T08:13:06Z</time>
      </trkpt>
      <trkpt lat="48.40925" lon="2.40504">
        <ele>165.47499</ele>
        <time>2012-07-01T08:13:58Z</time>
      </trkpt>
      <trkpt lat="48.40952" lon="2.40512">
        <ele>171.96315</ele>
        <time>2012-07-01T08:14:20Z</time>
      </trkpt>
      <trkpt lat="48.40977" lon="2.40506">
        <ele>171.23201</ele>
        <time>2012-07-01T08:14:40Z</time>
      </trkpt>
      <trkpt lat="48.40992" lon="2.4049">
        <ele>171.79454</ele>
        <time>2012-07-01T08:14:50Z</time>
      </trkpt>
      <trkpt lat="48.41019" lon="2.40453">
        <ele>171.12859</ele>
        <time>2012-07-01T08:15:12Z</time>
      </trkpt>
      <trkpt lat="48.41033" lon="2.40436">
        <ele>171.43001</ele>
        <time>2012-07-01T08:15:20Z</time>
      </trkpt>
      <trkpt lat="48.41043" lon="2.40408">
        <ele>172.2977</ele>
        <time>2012-07-01T08:15:32Z</time>
      </trkpt>
      <trkpt lat="48.41054" lon="2.40385">
        <ele>172.08029</ele>
        <time>2012-07-01T08:15:40Z</time>
      </trkpt>
      <trkpt lat="48.41069" lon="2.40365">
        <ele>172.06253</ele>
        <time>2012-07-01T08:15:46Z</time>
      </trkpt>
      <trkpt lat="48.41086" lon="2.40349">
        <ele>170.67088</ele>
        <time>2012-07-01T08:15:52Z</time>
      </trkpt>
      <trkpt lat="48.41104" lon="2.40355">
        <ele>168.35654</ele>
        <time>2012-07-01T08:16:00Z</time>
      </trkpt>
      <trkpt lat="48.41138" lon="2.40358">
        <ele>163.2</ele>
        <time>2012-07-01T08:17:37Z</time>
      </trkpt>
      <trkpt lat="48.41169" lon="2.40322">
        <ele>148.05983</ele>
        <time>2012-07-01T08:18:25Z</time>
      </trkpt>
      <trkpt lat="48.41185" lon="2.40306">
        <ele>139.40952</ele>
        <time>2012-07-01T08:18:32Z</time>
      </trkpt>
      <trkpt lat="48.41178" lon="2.4028">
        <ele>130.5875</ele>
        <time>2012-07-01T08:19:26Z</time>
      </trkpt>
      <trkpt lat="48.41172" lon="2.40253">
        <ele>129.37445</ele>
        <time>2012-07-01T08:19:35Z</time>
      </trkpt>
      <trkpt lat="48.41166" lon="2.40224">
        <ele>127.94245</ele>
        <time>2012-07-01T08:19:42Z</time>
      </trkpt>
      <trkpt lat="48.41161" lon="2.40198">
        <ele>126.587296</ele>
        <time>2012-07-01T08:19:48Z</time>
      </trkpt>
      <trkpt lat="48.41158" lon="2.40168">
        <ele>125.756165</ele>
        <time>2012-07-01T08:19:54Z</time>
      </trkpt>
      <trkpt lat="48.41148" lon="2.40138">
        <ele>125.09839</ele>
        <time>2012-07-01T08:19:59Z</time>
      </trkpt>
      <trkpt lat="48.41134" lon="2.40119">
        <ele>124.8675</ele>
        <time>2012-07-01T08:20:04Z</time>
      </trkpt>
      <trkpt lat="48.41116" lon="2.40103">
        <ele>124.186035</ele>
        <time>2012-07-01T08:20:10Z</time>
      </trkpt>
      <trkpt lat="48.41098" lon="2.4009">
        <ele>124.70146</ele>
        <time>2012-07-01T08:20:16Z</time>
      </trkpt>
      <trkpt lat="48.41082" lon="2.40076">
        <ele>126.50406</ele>
        <time>2012-07-01T08:20:21Z</time>
      </trkpt>
      <trkpt lat="48.41069" lon="2.40056">
        <ele>127.16737</ele>
        <time>2012-07-01T08:20:26Z</time>
      </trkpt>
      <trkpt lat="48.41056" lon="2.40035">
        <ele>127.79705</ele>
        <time>2012-07-01T08:20:31Z</time>
      </trkpt>
      <trkpt lat="48.41044" lon="2.40015">
        <ele>128.67642</ele>
        <time>2012-07-01T08:20:35Z</time>
      </trkpt>
      <trkpt lat="48.41032" lon="2.39991">
        <ele>129.6726</ele>
        <time>2012-07-01T08:20:39Z</time>
      </trkpt>
      <trkpt lat="48.41018" lon="2.39968">
        <ele>130.08664</ele>
        <time>2012-07-01T08:20:43Z</time>
      </trkpt>
      <trkpt lat="48.41005" lon="2.3995">
        <ele>129.0489</ele>
        <time>2012-07-01T08:20:47Z</time>
      </trkpt>
      <trkpt lat="48.40988" lon="2.39936">
        <ele>127.85298</ele>
        <time>2012-07-01T08:20:51Z</time>
      </trkpt>
      <trkpt lat="48.40976" lon="2.39909">
        <ele>127.08708</ele>
        <time>2012-07-01T08:20:55Z</time>
      </trkpt>
      <trkpt lat="48.40962" lon="2.39889">
        <ele>127.01174</ele>
        <time>2012-07-01T08:20:58Z</time>
      </trkpt>
      <trkpt lat="48.40949" lon="2.39866">
        <ele>126.73465</ele>
        <time>2012-07-01T08:21:01Z</time>
      </trkpt>
      <trkpt lat="48.40934" lon="2.39847">
        <ele>125.88831</ele>
        <time>2012-07-01T08:21:05Z</time>
      </trkpt>
      <trkpt lat="48.40916" lon="2.39826">
        <ele>125.20411</ele>
        <time>2012-07-01T08:21:09Z</time>
      </trkpt>
      <trkpt lat="48.409" lon="2.39811">
        <ele>124.343094</ele>
        <time>2012-07-01T08:21:13Z</time>
      </trkpt>
      <trkpt lat="48.40912" lon="2.39788">
        <ele>120.83489</ele>
        <time>2012-07-01T08:21:26Z</time>
      </trkpt>
      <trkpt lat="48.40929" lon="2.39778">
        <ele>120.158775</ele>
        <time>2012-07-01T08:21:31Z</time>
      </trkpt>
      <trkpt lat="48.4095" lon="2.3977">
        <ele>119.67176</ele>
        <time>2012-07-01T08:21:36Z</time>
      </trkpt>
      <trkpt lat="48.40971" lon="2.39763">
        <ele>119.272316</ele>
        <time>2012-07-01T08:21:40Z</time>
      </trkpt>
      <trkpt lat="48.40995" lon="2.39759">
        <ele>118.82836</ele>
        <time>2012-07-01T08:21:44Z</time>
      </trkpt>
      <trkpt lat="48.41018" lon="2.39757">
        <ele>118.247246</ele>
        <time>2012-07-01T08:21:48Z</time>
      </trkpt>
      <trkpt lat="48.41041" lon="2.39756">
        <ele>117.44932</ele>
        <time>2012-07-01T08:21:52Z</time>
      </trkpt>
      <trkpt lat="48.41064" lon="2.39758">
        <ele>116.294525</ele>
        <time>2012-07-01T08:21:56Z</time>
      </trkpt>
      <trkpt lat="48.41087" lon="2.3976">
        <ele>115.6721</ele>
        <time>2012-07-01T08:22:00Z</time>
      </trkpt>
      <trkpt lat="48.4111" lon="2.39766">
        <ele>115.10289</ele>
        <time>2012-07-01T08:22:04Z</time>
      </trkpt>
      <trkpt lat="48.41132" lon="2.39771">
        <ele>115.32944</ele>
        <time>2012-07-01T08:22:08Z</time>
      </trkpt>
      <trkpt lat="48.41152" lon="2.39777">
        <ele>115.01205</ele>
        <time>2012-07-01T08:22:12Z</time>
      </trkpt>
      <trkpt lat="48.4117" lon="2.39784">
        <ele>112.81757</ele>
        <time>2012-07-01T08:22:15Z</time>
      </trkpt>
      <trkpt lat="48.41188" lon="2.3979">
        <ele>110.97147</ele>
        <time>2012-07-01T08:22:18Z</time>
      </trkpt>
      <trkpt lat="48.41206" lon="2.39795">
        <ele>109.68797</ele>
        <time>2012-07-01T08:22:21Z</time>
      </trkpt>
      <trkpt lat="48.41224" lon="2.398">
        <ele>108.885544</ele>
        <time>2012-07-01T08:22:24Z</time>
      </trkpt>
      <trkpt lat="48.41242" lon="2.39805">
        <ele>108.59078</ele>
        <time>2012-07-01T08:22:27Z</time>
      </trkpt>
      <trkpt lat="48.4126" lon="2.39809">
        <ele>108.316414</ele>
        <time>2012-07-01T08:22:30Z</time>
      </trkpt>
      <trkpt lat="48.41278" lon="2.39814">
        <ele>108.1085</ele>
        <time>2012-07-01T08:22:33Z</time>
      </trkpt>
      <trkpt lat="48.41296" lon="2.39819">
        <ele>107.79265</ele>
        <time>2012-07-01T08:22:36Z</time>
      </trkpt>
      <trkpt lat="48.41314" lon="2.39825">
        <ele>107.61565</ele>
        <time>2012-07-01T08:22:39Z</time>
      </trkpt>
      <trkpt lat="48.41332" lon="2.39832">
        <ele>107.84567</ele>
        <time>2012-07-01T08:22:42Z</time>
      </trkpt>
      <trkpt lat="48.41349" lon="2.39842">
        <ele>108.245834</ele>
        <time>2012-07-01T08:22:45Z</time>
      </trkpt>
      <trkpt lat="48.41372" lon="2.39854">
        <ele>108.65122</ele>
        <time>2012-07-01T08:22:49Z</time>
      </trkpt>
      <trkpt lat="48.41394" lon="2.39865">
        <ele>108.627144</ele>
        <time>2012-07-01T08:22:53Z</time>
      </trkpt>
      <trkpt lat="48.41415" lon="2.39877">
        <ele>108.700775</ele>
        <time>2012-07-01T08:22:57Z</time>
      </trkpt>
      <trkpt lat="48.41436" lon="2.39891">
        <ele>108.155716</ele>
        <time>2012-07-01T08:23:01Z</time>
      </trkpt>
      <trkpt lat="48.41459" lon="2.39903">
        <ele>108.068405</ele>
        <time>2012-07-01T08:23:05Z</time>
      </trkpt>
      <trkpt lat="48.4148" lon="2.39913">
        <ele>108.007195</ele>
        <time>2012-07-01T08:23:09Z</time>
      </trkpt>
      <trkpt lat="48.41501" lon="2.39923">
        <ele>108.06048</ele>
        <time>2012-07-01T08:23:13Z</time>
      </trkpt>
      <trkpt lat="48.4152" lon="2.39933">
        <ele>108.28204</ele>
        <time>2012-07-01T08:23:17Z</time>
      </trkpt>
      <trkpt lat="48.41539" lon="2.39939">
        <ele>108.414246</ele>
        <time>2012-07-01T08:23:21Z</time>
      </trkpt>
      <trkpt lat="48.41559" lon="2.39945">
        <ele>108.50494</ele>
        <time>2012-07-01T08:23:26Z</time>
      </trkpt>
      <trkpt lat="48.4158" lon="2.39953">
        <ele>108.76583</ele>
        <time>2012-07-01T08:23:31Z</time>
      </trkpt>
      <trkpt lat="48.41599" lon="2.39963">
        <ele>108.80989</ele>
        <time>2012-07-01T08:23:35Z</time>
      </trkpt>
      <trkpt lat="48.41617" lon="2.39969">
        <ele>108.43907</ele>
        <time>2012-07-01T08:23:39Z</time>
      </trkpt>
      <trkpt lat="48.41638" lon="2.39972">
        <ele>108.750244</ele>
        <time>2012-07-01T08:23:43Z</time>
      </trkpt>
      <trkpt lat="48.41659" lon="2.39977">
        <ele>110.34981</ele>
        <time>2012-07-01T08:23:48Z</time>
      </trkpt>
      <trkpt lat="48.41678" lon="2.39981">
        <ele>111.95131</ele>
        <time>2012-07-01T08:23:52Z</time>
      </trkpt>
      <trkpt lat="48.41696" lon="2.39983">
        <ele>112.689285</ele>
        <time>2012-07-01T08:23:56Z</time>
      </trkpt>
      <trkpt lat="48.41715" lon="2.39986">
        <ele>113.52903</ele>
        <time>2012-07-01T08:24:00Z</time>
      </trkpt>
      <trkpt lat="48.41735" lon="2.39994">
        <ele>115.28325</ele>
        <time>2012-07-01T08:24:05Z</time>
      </trkpt>
      <trkpt lat="48.41753" lon="2.39997">
        <ele>117.230484</ele>
        <time>2012-07-01T08:24:11Z</time>
      </trkpt>
      <trkpt lat="48.41772" lon="2.39998">
        <ele>118.58752</ele>
        <time>2012-07-01T08:24:16Z</time>
      </trkpt>
      <trkpt lat="48.41799" lon="2.40013">
        <ele>125.79999</ele>
        <time>2012-07-01T08:30:39Z</time>
      </trkpt>
      <trkpt lat="48.41778" lon="2.40006">
        <ele>135.70624</ele>
        <time>2012-07-01T08:30:43Z</time>
      </trkpt>
      <trkpt lat="48.41793" lon="2.40021">
        <ele>134.65955</ele>
        <time>2012-07-01T08:30:49Z</time>
      </trkpt>
      <trkpt lat="48.41786" lon="2.40046">
        <ele>115.58507</ele>
        <time>2012-07-01T08:31:22Z</time>
      </trkpt>
      <trkpt lat="48.41778" lon="2.40072">
        <ele>115.029594</ele>
        <time>2012-07-01T08:31:35Z</time>
      </trkpt>
      <trkpt lat="48.41766" lon="2.40097">
        <ele>114.92018</ele>
        <time>2012-07-01T08:31:41Z</time>
      </trkpt>
      <trkpt lat="48.41754" lon="2.40119">
        <ele>114.612335</ele>
        <time>2012-07-01T08:31:47Z</time>
      </trkpt>
      <trkpt lat="48.41744" lon="2.40144">
        <ele>114.38591</ele>
        <time>2012-07-01T08:31:53Z</time>
      </trkpt>
      <trkpt lat="48.41737" lon="2.4017">
        <ele>115.26058</ele>
        <time>2012-07-01T08:31:59Z</time>
      </trkpt>
      <trkpt lat="48.41726" lon="2.40193">
        <ele>116.706856</ele>
        <time>2012-07-01T08:32:04Z</time>
      </trkpt>
      <trkpt lat="48.41714" lon="2.40216">
        <ele>119.096985</ele>
        <time>2012-07-01T08:32:10Z</time>
      </trkpt>
      <trkpt lat="48.41704" lon="2.40245">
        <ele>120.32749</ele>
        <time>2012-07-01T08:32:16Z</time>
      </trkpt>
      <trkpt lat="48.41694" lon="2.4027">
        <ele>121.695</ele>
        <time>2012-07-01T08:32:22Z</time>
      </trkpt>
      <trkpt lat="48.41686" lon="2.40296">
        <ele>122.56449</ele>
        <time>2012-07-01T08:32:28Z</time>
      </trkpt>
      <trkpt lat="48.41679" lon="2.40323">
        <ele>123.505516</ele>
        <time>2012-07-01T08:32:34Z</time>
      </trkpt>
      <trkpt lat="48.41672" lon="2.40351">
        <ele>123.711426</ele>
        <time>2012-07-01T08:32:40Z</time>
      </trkpt>
      <trkpt lat="48.41668" lon="2.40382">
        <ele>123.08177</ele>
        <time>2012-07-01T08:32:46Z</time>
      </trkpt>
      <trkpt lat="48.41662" lon="2.4041">
        <ele>122.67429</ele>
        <time>2012-07-01T08:32:51Z</time>
      </trkpt>
      <trkpt lat="48.41653" lon="2.40437">
        <ele>123.000626</ele>
        <time>2012-07-01T08:32:56Z</time>
      </trkpt>
      <trkpt lat="48.41643" lon="2.40468">
        <ele>123.7066</ele>
        <time>2012-07-01T08:33:01Z</time>
      </trkpt>
      <trkpt lat="48.41636" lon="2.40496">
        <ele>124.00522</ele>
        <time>2012-07-01T08:33:05Z</time>
      </trkpt>
      <trkpt lat="48.41636" lon="2.40523">
        <ele>123.958694</ele>
        <time>2012-07-01T08:33:12Z</time>
      </trkpt>
      <trkpt lat="48.4163" lon="2.40549">
        <ele>124.041176</ele>
        <time>2012-07-01T08:33:17Z</time>
      </trkpt>
      <trkpt lat="48.41625" lon="2.40576">
        <ele>124.09815</ele>
        <time>2012-07-01T08:33:22Z</time>
      </trkpt>
      <trkpt lat="48.41622" lon="2.40606">
        <ele>123.804504</ele>
        <time>2012-07-01T08:33:30Z</time>
      </trkpt>
      <trkpt lat="48.41622" lon="2.40634">
        <ele>124.25385</ele>
        <time>2012-07-01T08:33:36Z</time>
      </trkpt>
      <trkpt lat="48.41622" lon="2.40664">
        <ele>124.61161</ele>
        <time>2012-07-01T08:33:43Z</time>
      </trkpt>
      <trkpt lat="48.41618" lon="2.40691">
        <ele>125.070595</ele>
        <time>2012-07-01T08:33:49Z</time>
      </trkpt>
      <trkpt lat="48.41609" lon="2.4072">
        <ele>125.40336</ele>
        <time>2012-07-01T08:33:55Z</time>
      </trkpt>
      <trkpt lat="48.41601" lon="2.40748">
        <ele>125.969154</ele>
        <time>2012-07-01T08:34:00Z</time>
      </trkpt>
      <trkpt lat="48.41597" lon="2.40778">
        <ele>126.66463</ele>
        <time>2012-07-01T08:34:07Z</time>
      </trkpt>
      <trkpt lat="48.41592" lon="2.40805">
        <ele>126.85728</ele>
        <time>2012-07-01T08:34:13Z</time>
      </trkpt>
      <trkpt lat="48.41584" lon="2.40832">
        <ele>126.09261</ele>
        <time>2012-07-01T08:34:22Z</time>
      </trkpt>
      <trkpt lat="48.41582" lon="2.40859">
        <ele>124.707504</ele>
        <time>2012-07-01T08:34:31Z</time>
      </trkpt>
      <trkpt lat="48.41576" lon="2.40885">
        <ele>124.445076</ele>
        <time>2012-07-01T08:34:39Z</time>
      </trkpt>
      <trkpt lat="48.41569" lon="2.40914">
        <ele>125.56747</ele>
        <time>2012-07-01T08:34:48Z</time>
      </trkpt>
      <trkpt lat="48.41566" lon="2.40943">
        <ele>125.64578</ele>
        <time>2012-07-01T08:34:56Z</time>
      </trkpt>
      <trkpt lat="48.41562" lon="2.40971">
        <ele>126.86502</ele>
        <time>2012-07-01T08:35:03Z</time>
      </trkpt>
      <trkpt lat="48.41565" lon="2.40944">
        <ele>132.58589</ele>
        <time>2012-07-01T08:38:14Z</time>
      </trkpt>
      <trkpt lat="48.41568" lon="2.40914">
        <ele>133.3295</ele>
        <time>2012-07-01T08:38:21Z</time>
      </trkpt>
      <trkpt lat="48.41577" lon="2.40889">
        <ele>133.72507</ele>
        <time>2012-07-01T08:38:26Z</time>
      </trkpt>
      <trkpt lat="48.41581" lon="2.40861">
        <ele>133.77394</ele>
        <time>2012-07-01T08:38:30Z</time>
      </trkpt>
      <trkpt lat="48.41586" lon="2.4083">
        <ele>133.4616</ele>
        <time>2012-07-01T08:38:35Z</time>
      </trkpt>
      <trkpt lat="48.41595" lon="2.40803">
        <ele>133.03464</ele>
        <time>2012-07-01T08:38:40Z</time>
      </trkpt>
      <trkpt lat="48.41601" lon="2.40773">
        <ele>132.445</ele>
        <time>2012-07-01T08:38:46Z</time>
      </trkpt>
      <trkpt lat="48.41611" lon="2.40747">
        <ele>132.03925</ele>
        <time>2012-07-01T08:38:50Z</time>
      </trkpt>
      <trkpt lat="48.41617" lon="2.40721">
        <ele>131.87961</ele>
        <time>2012-07-01T08:38:54Z</time>
      </trkpt>
      <trkpt lat="48.41618" lon="2.40692">
        <ele>131.88432</ele>
        <time>2012-07-01T08:38:59Z</time>
      </trkpt>
      <trkpt lat="48.41623" lon="2.40663">
        <ele>131.69472</ele>
        <time>2012-07-01T08:39:04Z</time>
      </trkpt>
      <trkpt lat="48.41623" lon="2.40635">
        <ele>130.87997</ele>
        <time>2012-07-01T08:39:08Z</time>
      </trkpt>
      <trkpt lat="48.41624" lon="2.40601">
        <ele>129.84856</ele>
        <time>2012-07-01T08:39:13Z</time>
      </trkpt>
      <trkpt lat="48.4163" lon="2.40567">
        <ele>129.49857</ele>
        <time>2012-07-01T08:39:17Z</time>
      </trkpt>
      <trkpt lat="48.41635" lon="2.40536">
        <ele>129.83939</ele>
        <time>2012-07-01T08:39:21Z</time>
      </trkpt>
      <trkpt lat="48.41641" lon="2.40507">
        <ele>129.9273</ele>
        <time>2012-07-01T08:39:25Z</time>
      </trkpt>
      <trkpt lat="48.41641" lon="2.40478">
        <ele>130.50394</ele>
        <time>2012-07-01T08:39:29Z</time>
      </trkpt>
      <trkpt lat="48.41643" lon="2.4045">
        <ele>131.05594</ele>
        <time>2012-07-01T08:39:33Z</time>
      </trkpt>
      <trkpt lat="48.4165" lon="2.40422">
        <ele>131.23723</ele>
        <time>2012-07-01T08:39:37Z</time>
      </trkpt>
      <trkpt lat="48.4166" lon="2.40398">
        <ele>131.44234</ele>
        <time>2012-07-01T08:39:42Z</time>
      </trkpt>
      <trkpt lat="48.41666" lon="2.40368">
        <ele>132.11223</ele>
        <time>2012-07-01T08:39:48Z</time>
      </trkpt>
      <trkpt lat="48.41673" lon="2.40338">
        <ele>132.26968</ele>
        <time>2012-07-01T08:39:54Z</time>
      </trkpt>
      <trkpt lat="48.41681" lon="2.40311">
        <ele>131.75014</ele>
        <time>2012-07-01T08:39:59Z</time>
      </trkpt>
      <trkpt lat="48.41689" lon="2.40282">
        <ele>131.22127</ele>
        <time>2012-07-01T08:40:05Z</time>
      </trkpt>
      <trkpt lat="48.41698" lon="2.40258">
        <ele>131.56104</ele>
        <time>2012-07-01T08:40:12Z</time>
      </trkpt>
      <trkpt lat="48.41693" lon="2.40286">
        <ele>128.98643</ele>
        <time>2012-07-01T08:40:29Z</time>
      </trkpt>
      <trkpt lat="48.41684" lon="2.40314">
        <ele>128.24815</ele>
        <time>2012-07-01T08:40:34Z</time>
      </trkpt>
      <trkpt lat="48.41676" lon="2.40339">
        <ele>127.59609</ele>
        <time>2012-07-01T08:40:38Z</time>
      </trkpt>
      <trkpt lat="48.41669" lon="2.40368">
        <ele>127.3811</ele>
        <time>2012-07-01T08:40:43Z</time>
      </trkpt>
      <trkpt lat="48.41664" lon="2.40398">
        <ele>127.378555</ele>
        <time>2012-07-01T08:40:50Z</time>
      </trkpt>
      <trkpt lat="48.41656" lon="2.40424">
        <ele>125.527954</ele>
        <time>2012-07-01T08:41:22Z</time>
      </trkpt>
      <trkpt lat="48.41648" lon="2.40449">
        <ele>124.23667</ele>
        <time>2012-07-01T08:41:31Z</time>
      </trkpt>
      <trkpt lat="48.41643" lon="2.40477">
        <ele>123.542076</ele>
        <time>2012-07-01T08:41:35Z</time>
      </trkpt>
      <trkpt lat="48.41638" lon="2.40505">
        <ele>122.84474</ele>
        <time>2012-07-01T08:41:41Z</time>
      </trkpt>
      <trkpt lat="48.41632" lon="2.40535">
        <ele>122.50205</ele>
        <time>2012-07-01T08:41:47Z</time>
      </trkpt>
      <trkpt lat="48.41627" lon="2.40561">
        <ele>122.84756</ele>
        <time>2012-07-01T08:41:52Z</time>
      </trkpt>
      <trkpt lat="48.41623" lon="2.40591">
        <ele>123.40656</ele>
        <time>2012-07-01T08:41:58Z</time>
      </trkpt>
      <trkpt lat="48.41622" lon="2.40621">
        <ele>123.14113</ele>
        <time>2012-07-01T08:42:04Z</time>
      </trkpt>
      <trkpt lat="48.41623" lon="2.40648">
        <ele>122.47868</ele>
        <time>2012-07-01T08:42:10Z</time>
      </trkpt>
      <trkpt lat="48.4162" lon="2.4068">
        <ele>122.09925</ele>
        <time>2012-07-01T08:42:16Z</time>
      </trkpt>
      <trkpt lat="48.41612" lon="2.40709">
        <ele>122.34621</ele>
        <time>2012-07-01T08:42:22Z</time>
      </trkpt>
      <trkpt lat="48.41621" lon="2.40685">
        <ele>122.47236</ele>
        <time>2012-07-01T08:42:45Z</time>
      </trkpt>
      <trkpt lat="48.41625" lon="2.40655">
        <ele>121.33164</ele>
        <time>2012-07-01T08:42:52Z</time>
      </trkpt>
      <trkpt lat="48.41627" lon="2.40626">
        <ele>120.402596</ele>
        <time>2012-07-01T08:42:56Z</time>
      </trkpt>
      <trkpt lat="48.4163" lon="2.40594">
        <ele>119.856094</ele>
        <time>2012-07-01T08:43:01Z</time>
      </trkpt>
      <trkpt lat="48.41633" lon="2.40563">
        <ele>120.15602</ele>
        <time>2012-07-01T08:43:05Z</time>
      </trkpt>
      <trkpt lat="48.41637" lon="2.40534">
        <ele>120.93179</ele>
        <time>2012-07-01T08:43:09Z</time>
      </trkpt>
      <trkpt lat="48.41639" lon="2.40501">
        <ele>121.71565</ele>
        <time>2012-07-01T08:43:14Z</time>
      </trkpt>
      <trkpt lat="48.41645" lon="2.40473">
        <ele>121.66393</ele>
        <time>2012-07-01T08:43:18Z</time>
      </trkpt>
      <trkpt lat="48.41655" lon="2.40447">
        <ele>121.89835</ele>
        <time>2012-07-01T08:43:22Z</time>
      </trkpt>
      <trkpt lat="48.41663" lon="2.40415">
        <ele>121.948135</ele>
        <time>2012-07-01T08:43:27Z</time>
      </trkpt>
      <trkpt lat="48.41669" lon="2.40387">
        <ele>122.09843</ele>
        <time>2012-07-01T08:43:31Z</time>
      </trkpt>
      <trkpt lat="48.41672" lon="2.40356">
        <ele>122.431145</ele>
        <time>2012-07-01T08:43:35Z</time>
      </trkpt>
      <trkpt lat="48.41678" lon="2.40327">
        <ele>122.71611</ele>
        <time>2012-07-01T08:43:39Z</time>
      </trkpt>
      <trkpt lat="48.41689" lon="2.40303">
        <ele>122.481674</ele>
        <time>2012-07-01T08:43:43Z</time>
      </trkpt>
      <trkpt lat="48.41698" lon="2.40276">
        <ele>122.66804</ele>
        <time>2012-07-01T08:43:47Z</time>
      </trkpt>
      <trkpt lat="48.41705" lon="2.40248">
        <ele>122.978165</ele>
        <time>2012-07-01T08:43:51Z</time>
      </trkpt>
      <trkpt lat="48.41713" lon="2.40218">
        <ele>123.753815</ele>
        <time>2012-07-01T08:43:56Z</time>
      </trkpt>
      <trkpt lat="48.41722" lon="2.40191">
        <ele>124.54285</ele>
        <time>2012-07-01T08:44:01Z</time>
      </trkpt>
      <trkpt lat="48.41734" lon="2.40164">
        <ele>124.687996</ele>
        <time>2012-07-01T08:44:06Z</time>
      </trkpt>
      <trkpt lat="48.41746" lon="2.40138">
        <ele>124.22286</ele>
        <time>2012-07-01T08:44:12Z</time>
      </trkpt>
      <trkpt lat="48.41754" lon="2.40113">
        <ele>123.96675</ele>
        <time>2012-07-01T08:44:17Z</time>
      </trkpt>
      <trkpt lat="48.41765" lon="2.4009">
        <ele>123.83273</ele>
        <time>2012-07-01T08:44:22Z</time>
      </trkpt>
      <trkpt lat="48.41777" lon="2.40065">
        <ele>123.89527</ele>
        <time>2012-07-01T08:44:27Z</time>
      </trkpt>
      <trkpt lat="48.41787" lon="2.40041">
        <ele>123.287476</ele>
        <time>2012-07-01T08:44:34Z</time>
      </trkpt>
      <trkpt lat="48.41795" lon="2.40014">
        <ele>124.435646</ele>
        <time>2012-07-01T08:45:02Z</time>
      </trkpt>
      <trkpt lat="48.41801" lon="2.39999">
        <ele>131.40002</ele>
        <time>2012-07-01T08:50:10Z</time>
      </trkpt>
      <trkpt lat="48.41804" lon="2.39971">
        <ele>127.12592</ele>
        <time>2012-07-01T08:50:43Z</time>
      </trkpt>
      <trkpt lat="48.41812" lon="2.39943">
        <ele>127.4189</ele>
        <time>2012-07-01T08:50:53Z</time>
      </trkpt>
      <trkpt lat="48.4182" lon="2.39919">
        <ele>127.21901</ele>
        <time>2012-07-01T08:50:59Z</time>
      </trkpt>
      <trkpt lat="48.41828" lon="2.39893">
        <ele>128.15575</ele>
        <time>2012-07-01T08:51:05Z</time>
      </trkpt>
      <trkpt lat="48.41837" lon="2.39865">
        <ele>127.00329</ele>
        <time>2012-07-01T08:51:12Z</time>
      </trkpt>
      <trkpt lat="48.41846" lon="2.39839">
        <ele>126.1376</ele>
        <time>2012-07-01T08:51:18Z</time>
      </trkpt>
      <trkpt lat="48.41856" lon="2.3981">
        <ele>125.53647</ele>
        <time>2012-07-01T08:51:25Z</time>
      </trkpt>
      <trkpt lat="48.41861" lon="2.39783">
        <ele>125.33023</ele>
        <time>2012-07-01T08:51:30Z</time>
      </trkpt>
      <trkpt lat="48.41864" lon="2.39756">
        <ele>126.2057</ele>
        <time>2012-07-01T08:51:37Z</time>
      </trkpt>
      <trkpt lat="48.41867" lon="2.39729">
        <ele>126.638176</ele>
        <time>2012-07-01T08:51:43Z</time>
      </trkpt>
      <trkpt lat="48.41879" lon="2.39702">
        <ele>126.31185</ele>
        <time>2012-07-01T08:51:50Z</time>
      </trkpt>
      <trkpt lat="48.41888" lon="2.39678">
        <ele>127.37036</ele>
        <time>2012-07-01T08:51:57Z</time>
      </trkpt>
      <trkpt lat="48.41902" lon="2.39655">
        <ele>127.43137</ele>
        <time>2012-07-01T08:52:04Z</time>
      </trkpt>
      <trkpt lat="48.41913" lon="2.39629">
        <ele>126.661156</ele>
        <time>2012-07-01T08:52:09Z</time>
      </trkpt>
      <trkpt lat="48.41922" lon="2.39606">
        <ele>126.025215</ele>
        <time>2012-07-01T08:52:13Z</time>
      </trkpt>
      <trkpt lat="48.41932" lon="2.39581">
        <ele>125.41228</ele>
        <time>2012-07-01T08:52:17Z</time>
      </trkpt>
      <trkpt lat="48.41941" lon="2.39558">
        <ele>125.215126</ele>
        <time>2012-07-01T08:52:22Z</time>
      </trkpt>
      <trkpt lat="48.41944" lon="2.39527">
        <ele>125.50749</ele>
        <time>2012-07-01T08:52:27Z</time>
      </trkpt>
      <trkpt lat="48.41939" lon="2.39499">
        <ele>124.80472</ele>
        <time>2012-07-01T08:52:30Z</time>
      </trkpt>
      <trkpt lat="48.41934" lon="2.39469">
        <ele>124.16087</ele>
        <time>2012-07-01T08:52:34Z</time>
      </trkpt>
      <trkpt lat="48.41933" lon="2.39442">
        <ele>123.78332</ele>
        <time>2012-07-01T08:52:38Z</time>
      </trkpt>
      <trkpt lat="48.41929" lon="2.39416">
        <ele>123.15566</ele>
        <time>2012-07-01T08:52:42Z</time>
      </trkpt>
      <trkpt lat="48.41909" lon="2.39415">
        <ele>119.62514</ele>
        <time>2012-07-01T08:52:51Z</time>
      </trkpt>
      <trkpt lat="48.41894" lon="2.39397">
        <ele>117.540474</ele>
        <time>2012-07-01T08:52:59Z</time>
      </trkpt>
      <trkpt lat="48.41892" lon="2.39369">
        <ele>116.83207</ele>
        <time>2012-07-01T08:53:04Z</time>
      </trkpt>
      <trkpt lat="48.41888" lon="2.39338">
        <ele>116.30752</ele>
        <time>2012-07-01T08:53:09Z</time>
      </trkpt>
      <trkpt lat="48.41886" lon="2.39311">
        <ele>115.859406</ele>
        <time>2012-07-01T08:53:13Z</time>
      </trkpt>
      <trkpt lat="48.41884" lon="2.39281">
        <ele>115.687935</ele>
        <time>2012-07-01T08:53:17Z</time>
      </trkpt>
      <trkpt lat="48.41881" lon="2.3925">
        <ele>115.74775</ele>
        <time>2012-07-01T08:53:21Z</time>
      </trkpt>
      <trkpt lat="48.4188" lon="2.39219">
        <ele>115.53738</ele>
        <time>2012-07-01T08:53:25Z</time>
      </trkpt>
      <trkpt lat="48.41877" lon="2.3919">
        <ele>115.72042</ele>
        <time>2012-07-01T08:53:29Z</time>
      </trkpt>
      <trkpt lat="48.41874" lon="2.39161">
        <ele>115.87638</ele>
        <time>2012-07-01T08:53:33Z</time>
      </trkpt>
      <trkpt lat="48.41871" lon="2.39132">
        <ele>116.02923</ele>
        <time>2012-07-01T08:53:37Z</time>
      </trkpt>
      <trkpt lat="48.41868" lon="2.39103">
        <ele>116.0842</ele>
        <time>2012-07-01T08:53:40Z</time>
      </trkpt>
      <trkpt lat="48.41871" lon="2.39071">
        <ele>115.83941</ele>
        <time>2012-07-01T08:53:45Z</time>
      </trkpt>
      <trkpt lat="48.4188" lon="2.39044">
        <ele>114.878395</ele>
        <time>2012-07-01T08:53:50Z</time>
      </trkpt>
      <trkpt lat="48.41879" lon="2.39015">
        <ele>114.45571</ele>
        <time>2012-07-01T08:53:55Z</time>
      </trkpt>
      <trkpt lat="48.41877" lon="2.38984">
        <ele>114.03324</ele>
        <time>2012-07-01T08:54:00Z</time>
      </trkpt>
      <trkpt lat="48.41871" lon="2.38954">
        <ele>113.70387</ele>
        <time>2012-07-01T08:54:04Z</time>
      </trkpt>
      <trkpt lat="48.41864" lon="2.38923">
        <ele>113.53951</ele>
        <time>2012-07-01T08:54:08Z</time>
      </trkpt>
      <trkpt lat="48.41861" lon="2.38889">
        <ele>113.41954</ele>
        <time>2012-07-01T08:54:12Z</time>
      </trkpt>
      <trkpt lat="48.41861" lon="2.38855">
        <ele>113.40579</ele>
        <time>2012-07-01T08:54:16Z</time>
      </trkpt>
      <trkpt lat="48.4186" lon="2.3882">
        <ele>113.16862</ele>
        <time>2012-07-01T08:54:20Z</time>
      </trkpt>
      <trkpt lat="48.4187" lon="2.38796">
        <ele>112.90447</ele>
        <time>2012-07-01T08:54:25Z</time>
      </trkpt>
      <trkpt lat="48.41891" lon="2.38794">
        <ele>112.00453</ele>
        <time>2012-07-01T08:54:29Z</time>
      </trkpt>
      <trkpt lat="48.41913" lon="2.38785">
        <ele>111.37174</ele>
        <time>2012-07-01T08:54:33Z</time>
      </trkpt>
      <trkpt lat="48.41933" lon="2.38773">
        <ele>111.3231</ele>
        <time>2012-07-01T08:54:37Z</time>
      </trkpt>
      <trkpt lat="48.41951" lon="2.38761">
        <ele>111.54559</ele>
        <time>2012-07-01T08:54:41Z</time>
      </trkpt>
      <trkpt lat="48.4197" lon="2.38749">
        <ele>111.66208</ele>
        <time>2012-07-01T08:54:45Z</time>
      </trkpt>
      <trkpt lat="48.41988" lon="2.38738">
        <ele>111.97588</ele>
        <time>2012-07-01T08:54:49Z</time>
      </trkpt>
      <trkpt lat="48.42006" lon="2.38725">
        <ele>111.97792</ele>
        <time>2012-07-01T08:54:53Z</time>
      </trkpt>
      <trkpt lat="48.42025" lon="2.38713">
        <ele>111.60356</ele>
        <time>2012-07-01T08:54:57Z</time>
      </trkpt>
      <trkpt lat="48.42044" lon="2.387">
        <ele>111.13277</ele>
        <time>2012-07-01T08:55:01Z</time>
      </trkpt>
      <trkpt lat="48.42063" lon="2.3869">
        <ele>110.41037</ele>
        <time>2012-07-01T08:55:05Z</time>
      </trkpt>
      <trkpt lat="48.42084" lon="2.38678">
        <ele>109.67365</ele>
        <time>2012-07-01T08:55:10Z</time>
      </trkpt>
      <trkpt lat="48.42101" lon="2.38664">
        <ele>109.22528</ele>
        <time>2012-07-01T08:55:15Z</time>
      </trkpt>
      <trkpt lat="48.42093" lon="2.38638">
        <ele>108.819176</ele>
        <time>2012-07-01T08:55:20Z</time>
      </trkpt>
      <trkpt lat="48.42079" lon="2.38614">
        <ele>108.35646</ele>
        <time>2012-07-01T08:55:24Z</time>
      </trkpt>
      <trkpt lat="48.42067" lon="2.38587">
        <ele>107.93273</ele>
        <time>2012-07-01T08:55:29Z</time>
      </trkpt>
      <trkpt lat="48.42058" lon="2.38556">
        <ele>107.794975</ele>
        <time>2012-07-01T08:55:34Z</time>
      </trkpt>
      <trkpt lat="48.42049" lon="2.38532">
        <ele>108.07752</ele>
        <time>2012-07-01T08:55:39Z</time>
      </trkpt>
      <trkpt lat="48.42036" lon="2.38509">
        <ele>108.27251</ele>
        <time>2012-07-01T08:55:44Z</time>
      </trkpt>
      <trkpt lat="48.42022" lon="2.38491">
        <ele>108.32412</ele>
        <time>2012-07-01T08:55:48Z</time>
      </trkpt>
      <trkpt lat="48.42008" lon="2.38469">
        <ele>108.09552</ele>
        <time>2012-07-01T08:55:52Z</time>
      </trkpt>
      <trkpt lat="48.41993" lon="2.38448">
        <ele>107.428345</ele>
        <time>2012-07-01T08:55:57Z</time>
      </trkpt>
      <trkpt lat="48.41979" lon="2.38426">
        <ele>107.39803</ele>
        <time>2012-07-01T08:56:01Z</time>
      </trkpt>
      <trkpt lat="48.41965" lon="2.38403">
        <ele>107.07516</ele>
        <time>2012-07-01T08:56:05Z</time>
      </trkpt>
      <trkpt lat="48.41948" lon="2.38392">
        <ele>107.4296</ele>
        <time>2012-07-01T08:56:12Z</time>
      </trkpt>
      <trkpt lat="48.41939" lon="2.38367">
        <ele>109.94114</ele>
        <time>2012-07-01T08:56:28Z</time>
      </trkpt>
      <trkpt lat="48.41944" lon="2.38341">
        <ele>108.91639</ele>
        <time>2012-07-01T08:56:35Z</time>
      </trkpt>
      <trkpt lat="48.41937" lon="2.38314">
        <ele>108.11592</ele>
        <time>2012-07-01T08:56:56Z</time>
      </trkpt>
      <trkpt lat="48.41925" lon="2.38295">
        <ele>107.76412</ele>
        <time>2012-07-01T08:57:07Z</time>
      </trkpt>
      <trkpt lat="48.41906" lon="2.38298">
        <ele>107.61094</ele>
        <time>2012-07-01T08:57:15Z</time>
      </trkpt>
      <trkpt lat="48.41885" lon="2.383">
        <ele>107.40715</ele>
        <time>2012-07-01T08:57:22Z</time>
      </trkpt>
      <trkpt lat="48.4187" lon="2.38286">
        <ele>106.84837</ele>
        <time>2012-07-01T08:57:27Z</time>
      </trkpt>
      <trkpt lat="48.41856" lon="2.38262">
        <ele>106.17603</ele>
        <time>2012-07-01T08:57:32Z</time>
      </trkpt>
      <trkpt lat="48.41843" lon="2.38236">
        <ele>106.24451</ele>
        <time>2012-07-01T08:57:37Z</time>
      </trkpt>
      <trkpt lat="48.41829" lon="2.38214">
        <ele>106.45646</ele>
        <time>2012-07-01T08:57:42Z</time>
      </trkpt>
      <trkpt lat="48.41809" lon="2.38209">
        <ele>106.72834</ele>
        <time>2012-07-01T08:57:47Z</time>
      </trkpt>
      <trkpt lat="48.41789" lon="2.38216">
        <ele>106.74061</ele>
        <time>2012-07-01T08:57:52Z</time>
      </trkpt>
      <trkpt lat="48.4177" lon="2.38224">
        <ele>106.44538</ele>
        <time>2012-07-01T08:57:57Z</time>
      </trkpt>
      <trkpt lat="48.41753" lon="2.38232">
        <ele>106.47913</ele>
        <time>2012-07-01T08:58:02Z</time>
      </trkpt>
      <trkpt lat="48.41732" lon="2.38241">
        <ele>106.49505</ele>
        <time>2012-07-01T08:58:07Z</time>
      </trkpt>
      <trkpt lat="48.41711" lon="2.38249">
        <ele>106.455086</ele>
        <time>2012-07-01T08:58:12Z</time>
      </trkpt>
      <trkpt lat="48.41693" lon="2.38258">
        <ele>106.44599</ele>
        <time>2012-07-01T08:58:17Z</time>
      </trkpt>
      <trkpt lat="48.41673" lon="2.38268">
        <ele>106.75047</ele>
        <time>2012-07-01T08:58:22Z</time>
      </trkpt>
      <trkpt lat="48.41652" lon="2.38278">
        <ele>106.97702</ele>
        <time>2012-07-01T08:58:27Z</time>
      </trkpt>
      <trkpt lat="48.41631" lon="2.38289">
        <ele>107.10372</ele>
        <time>2012-07-01T08:58:32Z</time>
      </trkpt>
      <trkpt lat="48.41611" lon="2.38299">
        <ele>107.25341</ele>
        <time>2012-07-01T08:58:37Z</time>
      </trkpt>
      <trkpt lat="48.41591" lon="2.3831">
        <ele>107.423416</ele>
        <time>2012-07-01T08:58:42Z</time>
      </trkpt>
      <trkpt lat="48.41571" lon="2.38318">
        <ele>107.48934</ele>
        <time>2012-07-01T08:58:47Z</time>
      </trkpt>
      <trkpt lat="48.41552" lon="2.38325">
        <ele>107.68449</ele>
        <time>2012-07-01T08:58:52Z</time>
      </trkpt>
      <trkpt lat="48.41533" lon="2.38332">
        <ele>107.56908</ele>
        <time>2012-07-01T08:58:57Z</time>
      </trkpt>
      <trkpt lat="48.41513" lon="2.38341">
        <ele>107.24587</ele>
        <time>2012-07-01T08:59:02Z</time>
      </trkpt>
      <trkpt lat="48.41492" lon="2.38351">
        <ele>107.11585</ele>
        <time>2012-07-01T08:59:07Z</time>
      </trkpt>
      <trkpt lat="48.41472" lon="2.38361">
        <ele>107.14751</ele>
        <time>2012-07-01T08:59:12Z</time>
      </trkpt>
      <trkpt lat="48.4145" lon="2.38371">
        <ele>107.16118</ele>
        <time>2012-07-01T08:59:17Z</time>
      </trkpt>
      <trkpt lat="48.41429" lon="2.3838">
        <ele>107.19772</ele>
        <time>2012-07-01T08:59:22Z</time>
      </trkpt>
      <trkpt lat="48.4141" lon="2.38389">
        <ele>107.61928</ele>
        <time>2012-07-01T08:59:27Z</time>
      </trkpt>
      <trkpt lat="48.4139" lon="2.38397">
        <ele>107.73211</ele>
        <time>2012-07-01T08:59:32Z</time>
      </trkpt>
      <trkpt lat="48.4137" lon="2.38405">
        <ele>107.76543</ele>
        <time>2012-07-01T08:59:37Z</time>
      </trkpt>
      <trkpt lat="48.41349" lon="2.38413">
        <ele>107.96962</ele>
        <time>2012-07-01T08:59:42Z</time>
      </trkpt>
      <trkpt lat="48.41332" lon="2.38421">
        <ele>107.92164</ele>
        <time>2012-07-01T08:59:46Z</time>
      </trkpt>
      <trkpt lat="48.41315" lon="2.3843">
        <ele>107.54239</ele>
        <time>2012-07-01T08:59:50Z</time>
      </trkpt>
      <trkpt lat="48.41295" lon="2.38442">
        <ele>107.37627</ele>
        <time>2012-07-01T08:59:55Z</time>
      </trkpt>
      <trkpt lat="48.41275" lon="2.38453">
        <ele>107.37553</ele>
        <time>2012-07-01T09:00:00Z</time>
      </trkpt>
      <trkpt lat="48.41254" lon="2.38463">
        <ele>107.02134</ele>
        <time>2012-07-01T09:00:05Z</time>
      </trkpt>
      <trkpt lat="48.41237" lon="2.38472">
        <ele>106.45597</ele>
        <time>2012-07-01T09:00:09Z</time>
      </trkpt>
      <trkpt lat="48.41218" lon="2.38477">
        <ele>106.12265</ele>
        <time>2012-07-01T09:00:14Z</time>
      </trkpt>
      <trkpt lat="48.41212" lon="2.38451">
        <ele>106.14816</ele>
        <time>2012-07-01T09:00:19Z</time>
      </trkpt>
      <trkpt lat="48.41208" lon="2.38422">
        <ele>106.658676</ele>
        <time>2012-07-01T09:00:25Z</time>
      </trkpt>
      <trkpt lat="48.41203" lon="2.38394">
        <ele>107.55004</ele>
        <time>2012-07-01T09:00:32Z</time>
      </trkpt>
      <trkpt lat="48.41197" lon="2.38366">
        <ele>108.171906</ele>
        <time>2012-07-01T09:00:39Z</time>
      </trkpt>
      <trkpt lat="48.41192" lon="2.38338">
        <ele>108.75061</ele>
        <time>2012-07-01T09:00:45Z</time>
      </trkpt>
      <trkpt lat="48.41187" lon="2.38312">
        <ele>109.44902</ele>
        <time>2012-07-01T09:00:51Z</time>
      </trkpt>
      <trkpt lat="48.41182" lon="2.38285">
        <ele>110.29315</ele>
        <time>2012-07-01T09:00:57Z</time>
      </trkpt>
      <trkpt lat="48.41178" lon="2.38258">
        <ele>111.18244</ele>
        <time>2012-07-01T09:01:03Z</time>
      </trkpt>
      <trkpt lat="48.41173" lon="2.38232">
        <ele>112.01848</ele>
        <time>2012-07-01T09:01:09Z</time>
      </trkpt>
      <trkpt lat="48.41167" lon="2.38202">
        <ele>112.08548</ele>
        <time>2012-07-01T09:01:16Z</time>
      </trkpt>
      <trkpt lat="48.41161" lon="2.38172">
        <ele>112.53427</ele>
        <time>2012-07-01T09:01:23Z</time>
      </trkpt>
      <trkpt lat="48.41157" lon="2.38145">
        <ele>112.95367</ele>
        <time>2012-07-01T09:01:29Z</time>
      </trkpt>
      <trkpt lat="48.4115" lon="2.38118">
        <ele>113.74121</ele>
        <time>2012-07-01T09:01:37Z</time>
      </trkpt>
      <trkpt lat="48.4113" lon="2.38115">
        <ele>113.440216</ele>
        <time>2012-07-01T09:01:45Z</time>
      </trkpt>
      <trkpt lat="48.41112" lon="2.38115">
        <ele>113.2816</ele>
        <time>2012-07-01T09:01:51Z</time>
      </trkpt>
      <trkpt lat="48.41091" lon="2.38121">
        <ele>113.700325</ele>
        <time>2012-07-01T09:01:58Z</time>
      </trkpt>
      <trkpt lat="48.41072" lon="2.38133">
        <ele>114.14888</ele>
        <time>2012-07-01T09:02:04Z</time>
      </trkpt>
      <trkpt lat="48.41056" lon="2.38148">
        <ele>114.31542</ele>
        <time>2012-07-01T09:02:09Z</time>
      </trkpt>
      <trkpt lat="48.4104" lon="2.38162">
        <ele>114.235306</ele>
        <time>2012-07-01T09:02:14Z</time>
      </trkpt>
      <trkpt lat="48.41024" lon="2.38177">
        <ele>114.22283</ele>
        <time>2012-07-01T09:02:19Z</time>
      </trkpt>
      <trkpt lat="48.41006" lon="2.38192">
        <ele>114.382866</ele>
        <time>2012-07-01T09:02:24Z</time>
      </trkpt>
      <trkpt lat="48.40987" lon="2.38205">
        <ele>114.2263</ele>
        <time>2012-07-01T09:02:29Z</time>
      </trkpt>
      <trkpt lat="48.40969" lon="2.38213">
        <ele>114.164955</ele>
        <time>2012-07-01T09:02:33Z</time>
      </trkpt>
      <trkpt lat="48.40949" lon="2.38219">
        <ele>114.02148</ele>
        <time>2012-07-01T09:02:38Z</time>
      </trkpt>
      <trkpt lat="48.40928" lon="2.38225">
        <ele>113.46203</ele>
        <time>2012-07-01T09:02:43Z</time>
      </trkpt>
      <trkpt lat="48.40906" lon="2.38231">
        <ele>112.9821</ele>
        <time>2012-07-01T09:02:48Z</time>
      </trkpt>
      <trkpt lat="48.40886" lon="2.38234">
        <ele>112.95201</ele>
        <time>2012-07-01T09:02:53Z</time>
      </trkpt>
      <trkpt lat="48.40864" lon="2.38236">
        <ele>112.95571</ele>
        <time>2012-07-01T09:02:58Z</time>
      </trkpt>
      <trkpt lat="48.40845" lon="2.38236">
        <ele>112.848885</ele>
        <time>2012-07-01T09:03:02Z</time>
      </trkpt>
      <trkpt lat="48.40824" lon="2.38235">
        <ele>112.48944</ele>
        <time>2012-07-01T09:03:07Z</time>
      </trkpt>
      <trkpt lat="48.40805" lon="2.38231">
        <ele>112.21877</ele>
        <time>2012-07-01T09:03:12Z</time>
      </trkpt>
      <trkpt lat="48.40785" lon="2.38226">
        <ele>112.11372</ele>
        <time>2012-07-01T09:03:17Z</time>
      </trkpt>
      <trkpt lat="48.40764" lon="2.3822">
        <ele>111.969185</ele>
        <time>2012-07-01T09:03:22Z</time>
      </trkpt>
      <trkpt lat="48.40743" lon="2.38214">
        <ele>111.83361</ele>
        <time>2012-07-01T09:03:27Z</time>
      </trkpt>
      <trkpt lat="48.40723" lon="2.38209">
        <ele>111.77506</ele>
        <time>2012-07-01T09:03:32Z</time>
      </trkpt>
      <trkpt lat="48.40705" lon="2.3821">
        <ele>111.572586</ele>
        <time>2012-07-01T09:03:36Z</time>
      </trkpt>
      <trkpt lat="48.40687" lon="2.38214">
        <ele>111.39679</ele>
        <time>2012-07-01T09:03:40Z</time>
      </trkpt>
      <trkpt lat="48.40666" lon="2.38213">
        <ele>110.573074</ele>
        <time>2012-07-01T09:03:47Z</time>
      </trkpt>
      <trkpt lat="48.40648" lon="2.38216">
        <ele>110.701195</ele>
        <time>2012-07-01T09:03:53Z</time>
      </trkpt>
      <trkpt lat="48.40647" lon="2.38249">
        <ele>110.97733</ele>
        <time>2012-07-01T09:03:59Z</time>
      </trkpt>
      <trkpt lat="48.40651" lon="2.38278">
        <ele>111.44829</ele>
        <time>2012-07-01T09:04:03Z</time>
      </trkpt>
      <trkpt lat="48.40633" lon="2.38289">
        <ele>110.867096</ele>
        <time>2012-07-01T09:04:10Z</time>
      </trkpt>
      <trkpt lat="48.40614" lon="2.38289">
        <ele>110.37677</ele>
        <time>2012-07-01T09:04:15Z</time>
      </trkpt>
      <trkpt lat="48.40594" lon="2.3829">
        <ele>110.639694</ele>
        <time>2012-07-01T09:04:20Z</time>
      </trkpt>
      <trkpt lat="48.40574" lon="2.3829">
        <ele>111.36419</ele>
        <time>2012-07-01T09:04:25Z</time>
      </trkpt>
      <trkpt lat="48.40554" lon="2.3829">
        <ele>111.14668</ele>
        <time>2012-07-01T09:04:30Z</time>
      </trkpt>
      <trkpt lat="48.40533" lon="2.3829">
        <ele>110.87573</ele>
        <time>2012-07-01T09:04:35Z</time>
      </trkpt>
      <trkpt lat="48.40515" lon="2.38286">
        <ele>110.62904</ele>
        <time>2012-07-01T09:04:39Z</time>
      </trkpt>
      <trkpt lat="48.40497" lon="2.38277">
        <ele>110.51623</ele>
        <time>2012-07-01T09:04:43Z</time>
      </trkpt>
      <trkpt lat="48.40483" lon="2.38258">
        <ele>110.06939</ele>
        <time>2012-07-01T09:04:48Z</time>
      </trkpt>
      <trkpt lat="48.40488" lon="2.3823">
        <ele>109.7692</ele>
        <time>2012-07-01T09:04:53Z</time>
      </trkpt>
      <trkpt lat="48.40496" lon="2.382">
        <ele>109.79953</ele>
        <time>2012-07-01T09:04:58Z</time>
      </trkpt>
      <trkpt lat="48.405" lon="2.3817">
        <ele>110.198326</ele>
        <time>2012-07-01T09:05:03Z</time>
      </trkpt>
      <trkpt lat="48.40489" lon="2.38147">
        <ele>110.69989</ele>
        <time>2012-07-01T09:05:08Z</time>
      </trkpt>
      <trkpt lat="48.40468" lon="2.3814">
        <ele>111.02213</ele>
        <time>2012-07-01T09:05:13Z</time>
      </trkpt>
      <trkpt lat="48.40446" lon="2.38134">
        <ele>111.03914</ele>
        <time>2012-07-01T09:05:18Z</time>
      </trkpt>
      <trkpt lat="48.40425" lon="2.38128">
        <ele>110.78077</ele>
        <time>2012-07-01T09:05:23Z</time>
      </trkpt>
      <trkpt lat="48.40403" lon="2.38124">
        <ele>110.447975</ele>
        <time>2012-07-01T09:05:28Z</time>
      </trkpt>
      <trkpt lat="48.40385" lon="2.3812">
        <ele>110.1519</ele>
        <time>2012-07-01T09:05:32Z</time>
      </trkpt>
      <trkpt lat="48.40366" lon="2.38119">
        <ele>110.31525</ele>
        <time>2012-07-01T09:05:36Z</time>
      </trkpt>
      <trkpt lat="48.40347" lon="2.3812">
        <ele>110.44154</ele>
        <time>2012-07-01T09:05:40Z</time>
      </trkpt>
      <trkpt lat="48.40328" lon="2.38121">
        <ele>110.75572</ele>
        <time>2012-07-01T09:05:44Z</time>
      </trkpt>
      <trkpt lat="48.4031" lon="2.38121">
        <ele>111.31216</ele>
        <time>2012-07-01T09:05:48Z</time>
      </trkpt>
      <trkpt lat="48.40291" lon="2.38125">
        <ele>111.67594</ele>
        <time>2012-07-01T09:05:53Z</time>
      </trkpt>
      <trkpt lat="48.40279" lon="2.381">
        <ele>110.98606</ele>
        <time>2012-07-01T09:06:00Z</time>
      </trkpt>
      <trkpt lat="48.40281" lon="2.38068">
        <ele>110.08321</ele>
        <time>2012-07-01T09:06:05Z</time>
      </trkpt>
      <trkpt lat="48.40283" lon="2.38037">
        <ele>109.979324</ele>
        <time>2012-07-01T09:06:10Z</time>
      </trkpt>
      <trkpt lat="48.40287" lon="2.38006">
        <ele>109.99548</ele>
        <time>2012-07-01T09:06:15Z</time>
      </trkpt>
      <trkpt lat="48.40292" lon="2.37976">
        <ele>110.390144</ele>
        <time>2012-07-01T09:06:20Z</time>
      </trkpt>
      <trkpt lat="48.40296" lon="2.37948">
        <ele>110.98048</ele>
        <time>2012-07-01T09:06:25Z</time>
      </trkpt>
      <trkpt lat="48.40286" lon="2.37924">
        <ele>111.402</ele>
        <time>2012-07-01T09:06:30Z</time>
      </trkpt>
      <trkpt lat="48.40271" lon="2.37902">
        <ele>111.72265</ele>
        <time>2012-07-01T09:06:35Z</time>
      </trkpt>
      <trkpt lat="48.40257" lon="2.3788">
        <ele>111.88028</ele>
        <time>2012-07-01T09:06:40Z</time>
      </trkpt>
      <trkpt lat="48.40251" lon="2.37853">
        <ele>112.89839</ele>
        <time>2012-07-01T09:06:46Z</time>
      </trkpt>
      <trkpt lat="48.40257" lon="2.37827">
        <ele>114.59845</ele>
        <time>2012-07-01T09:07:00Z</time>
      </trkpt>
      <trkpt lat="48.40269" lon="2.37804">
        <ele>114.98531</ele>
        <time>2012-07-01T09:07:06Z</time>
      </trkpt>
      <trkpt lat="48.40281" lon="2.37782">
        <ele>114.97943</ele>
        <time>2012-07-01T09:07:11Z</time>
      </trkpt>
      <trkpt lat="48.40294" lon="2.37762">
        <ele>114.8751</ele>
        <time>2012-07-01T09:07:16Z</time>
      </trkpt>
      <trkpt lat="48.40309" lon="2.37743">
        <ele>114.54566</ele>
        <time>2012-07-01T09:07:21Z</time>
      </trkpt>
      <trkpt lat="48.40324" lon="2.37724">
        <ele>114.71327</ele>
        <time>2012-07-01T09:07:26Z</time>
      </trkpt>
      <trkpt lat="48.40337" lon="2.37702">
        <ele>114.65324</ele>
        <time>2012-07-01T09:07:31Z</time>
      </trkpt>
      <trkpt lat="48.40345" lon="2.37672">
        <ele>114.706276</ele>
        <time>2012-07-01T09:07:36Z</time>
      </trkpt>
      <trkpt lat="48.40349" lon="2.37641">
        <ele>115.197</ele>
        <time>2012-07-01T09:07:41Z</time>
      </trkpt>
      <trkpt lat="48.40354" lon="2.37612">
        <ele>115.77584</ele>
        <time>2012-07-01T09:07:46Z</time>
      </trkpt>
      <trkpt lat="48.4036" lon="2.37584">
        <ele>116.31937</ele>
        <time>2012-07-01T09:07:51Z</time>
      </trkpt>
      <trkpt lat="48.40358" lon="2.37555">
        <ele>117.09122</ele>
        <time>2012-07-01T09:07:56Z</time>
      </trkpt>
      <trkpt lat="48.40359" lon="2.37524">
        <ele>117.96317</ele>
        <time>2012-07-01T09:08:02Z</time>
      </trkpt>
      <trkpt lat="48.40359" lon="2.37495">
        <ele>117.993126</ele>
        <time>2012-07-01T09:08:08Z</time>
      </trkpt>
      <trkpt lat="48.40357" lon="2.37464">
        <ele>117.98032</ele>
        <time>2012-07-01T09:08:14Z</time>
      </trkpt>
      <trkpt lat="48.40355" lon="2.37432">
        <ele>118.55113</ele>
        <time>2012-07-01T09:08:20Z</time>
      </trkpt>
      <trkpt lat="48.40341" lon="2.37413">
        <ele>119.07583</ele>
        <time>2012-07-01T09:08:26Z</time>
      </trkpt>
      <trkpt lat="48.40322" lon="2.37416">
        <ele>119.36879</ele>
        <time>2012-07-01T09:08:33Z</time>
      </trkpt>
      <trkpt lat="48.40302" lon="2.37416">
        <ele>119.842636</ele>
        <time>2012-07-01T09:08:41Z</time>
      </trkpt>
      <trkpt lat="48.40285" lon="2.37406">
        <ele>120.35622</ele>
        <time>2012-07-01T09:08:52Z</time>
      </trkpt>
      <trkpt lat="48.40267" lon="2.37397">
        <ele>120.9631</ele>
        <time>2012-07-01T09:09:02Z</time>
      </trkpt>
      <trkpt lat="48.40247" lon="2.3739">
        <ele>121.611</ele>
        <time>2012-07-01T09:09:15Z</time>
      </trkpt>
      <trkpt lat="48.40228" lon="2.37385">
        <ele>122.1924</ele>
        <time>2012-07-01T09:09:25Z</time>
      </trkpt>
      <trkpt lat="48.4021" lon="2.37379">
        <ele>123.45832</ele>
        <time>2012-07-01T09:09:36Z</time>
      </trkpt>
      <trkpt lat="48.40192" lon="2.37361">
        <ele>124.88031</ele>
        <time>2012-07-01T09:09:42Z</time>
      </trkpt>
      <trkpt lat="48.40173" lon="2.37355">
        <ele>127.26187</ele>
        <time>2012-07-01T09:09:51Z</time>
      </trkpt>
      <trkpt lat="48.40154" lon="2.37362">
        <ele>130.91614</ele>
        <time>2012-07-01T09:10:07Z</time>
      </trkpt>
      <trkpt lat="48.40136" lon="2.3737">
        <ele>134.60532</ele>
        <time>2012-07-01T09:10:36Z</time>
      </trkpt>
      <trkpt lat="48.40119" lon="2.37386">
        <ele>137.32745</ele>
        <time>2012-07-01T09:10:53Z</time>
      </trkpt>
      <trkpt lat="48.401" lon="2.3739">
        <ele>137.35</ele>
        <time>2012-07-01T09:12:16Z</time>
      </trkpt>
      <trkpt lat="48.40089" lon="2.37414">
        <ele>137.8733</ele>
        <time>2012-07-01T09:12:25Z</time>
      </trkpt>
      <trkpt lat="48.40077" lon="2.37438">
        <ele>138.621</ele>
        <time>2012-07-01T09:12:31Z</time>
      </trkpt>
      <trkpt lat="48.40066" lon="2.37461">
        <ele>138.87784</ele>
        <time>2012-07-01T09:12:36Z</time>
      </trkpt>
      <trkpt lat="48.40051" lon="2.37485">
        <ele>138.6171</ele>
        <time>2012-07-01T09:12:41Z</time>
      </trkpt>
      <trkpt lat="48.40034" lon="2.37504">
        <ele>138.56128</ele>
        <time>2012-07-01T09:12:45Z</time>
      </trkpt>
      <trkpt lat="48.40014" lon="2.37522">
        <ele>138.4901</ele>
        <time>2012-07-01T09:12:49Z</time>
      </trkpt>
      <trkpt lat="48.39998" lon="2.37537">
        <ele>137.93489</ele>
        <time>2012-07-01T09:12:52Z</time>
      </trkpt>
      <trkpt lat="48.39983" lon="2.37552">
        <ele>137.35846</ele>
        <time>2012-07-01T09:12:55Z</time>
      </trkpt>
      <trkpt lat="48.39961" lon="2.37566">
        <ele>136.73843</ele>
        <time>2012-07-01T09:12:59Z</time>
      </trkpt>
      <trkpt lat="48.39943" lon="2.3757">
        <ele>136.21465</ele>
        <time>2012-07-01T09:13:02Z</time>
      </trkpt>
      <trkpt lat="48.39923" lon="2.37572">
        <ele>135.3468</ele>
        <time>2012-07-01T09:13:05Z</time>
      </trkpt>
      <trkpt lat="48.39905" lon="2.37571">
        <ele>134.60098</ele>
        <time>2012-07-01T09:13:08Z</time>
      </trkpt>
      <trkpt lat="48.39882" lon="2.37572">
        <ele>133.50851</ele>
        <time>2012-07-01T09:13:12Z</time>
      </trkpt>
      <trkpt lat="48.39864" lon="2.37572">
        <ele>132.37546</ele>
        <time>2012-07-01T09:13:15Z</time>
      </trkpt>
      <trkpt lat="48.39846" lon="2.37572">
        <ele>131.42871</ele>
        <time>2012-07-01T09:13:18Z</time>
      </trkpt>
      <trkpt lat="48.39826" lon="2.37572">
        <ele>130.7293</ele>
        <time>2012-07-01T09:13:21Z</time>
      </trkpt>
      <trkpt lat="48.39804" lon="2.37577">
        <ele>130.21704</ele>
        <time>2012-07-01T09:13:24Z</time>
      </trkpt>
      <trkpt lat="48.39783" lon="2.37581">
        <ele>129.75095</ele>
        <time>2012-07-01T09:13:27Z</time>
      </trkpt>
      <trkpt lat="48.39761" lon="2.37585">
        <ele>129.1215</ele>
        <time>2012-07-01T09:13:30Z</time>
      </trkpt>
      <trkpt lat="48.39741" lon="2.37588">
        <ele>128.345</ele>
        <time>2012-07-01T09:13:33Z</time>
      </trkpt>
      <trkpt lat="48.3972" lon="2.37589">
        <ele>127.190865</ele>
        <time>2012-07-01T09:13:36Z</time>
      </trkpt>
      <trkpt lat="48.39701" lon="2.37589">
        <ele>126.14772</ele>
        <time>2012-07-01T09:13:39Z</time>
      </trkpt>
      <trkpt lat="48.39683" lon="2.37589">
        <ele>125.277954</ele>
        <time>2012-07-01T09:13:42Z</time>
      </trkpt>
      <trkpt lat="48.39664" lon="2.37583">
        <ele>123.62388</ele>
        <time>2012-07-01T09:13:47Z</time>
      </trkpt>
      <trkpt lat="48.39668" lon="2.37557">
        <ele>123.997986</ele>
        <time>2012-07-01T09:14:41Z</time>
      </trkpt>
      <trkpt lat="48.39678" lon="2.37531">
        <ele>125.410034</ele>
        <time>2012-07-01T09:14:52Z</time>
      </trkpt>
      <trkpt lat="48.3969" lon="2.37507">
        <ele>125.98203</ele>
        <time>2012-07-01T09:15:01Z</time>
      </trkpt>
      <trkpt lat="48.39698" lon="2.37482">
        <ele>126.43256</ele>
        <time>2012-07-01T09:15:08Z</time>
      </trkpt>
      <trkpt lat="48.39704" lon="2.37454">
        <ele>127.04</ele>
        <time>2012-07-01T09:15:16Z</time>
      </trkpt>
      <trkpt lat="48.39712" lon="2.37427">
        <ele>127.17108</ele>
        <time>2012-07-01T09:15:26Z</time>
      </trkpt>
      <trkpt lat="48.39723" lon="2.37404">
        <ele>127.08396</ele>
        <time>2012-07-01T09:15:38Z</time>
      </trkpt>
      <trkpt lat="48.3973" lon="2.37378">
        <ele>127.31107</ele>
        <time>2012-07-01T09:15:50Z</time>
      </trkpt>
      <trkpt lat="48.39736" lon="2.37352">
        <ele>128.22699</ele>
        <time>2012-07-01T09:16:03Z</time>
      </trkpt>
      <trkpt lat="48.39742" lon="2.37325">
        <ele>130.02469</ele>
        <time>2012-07-01T09:16:15Z</time>
      </trkpt>
      <trkpt lat="48.39746" lon="2.37299">
        <ele>131.57796</ele>
        <time>2012-07-01T09:16:25Z</time>
      </trkpt>
      <trkpt lat="48.3975" lon="2.3727">
        <ele>135.06792</ele>
        <time>2012-07-01T09:16:37Z</time>
      </trkpt>
      <trkpt lat="48.39738" lon="2.37248">
        <ele>138.488</ele>
        <time>2012-07-01T09:16:53Z</time>
      </trkpt>
      <trkpt lat="48.3972" lon="2.3724">
        <ele>141.987</ele>
        <time>2012-07-01T09:17:04Z</time>
      </trkpt>
      <trkpt lat="48.39701" lon="2.37236">
        <ele>146.3203</ele>
        <time>2012-07-01T09:17:58Z</time>
      </trkpt>
      <trkpt lat="48.39683" lon="2.3723">
        <ele>149.50952</ele>
        <time>2012-07-01T09:18:13Z</time>
      </trkpt>
      <trkpt lat="48.39664" lon="2.3723">
        <ele>152.63979</ele>
        <time>2012-07-01T09:18:25Z</time>
      </trkpt>
      <trkpt lat="48.39646" lon="2.37228">
        <ele>154.11502</ele>
        <time>2012-07-01T09:18:35Z</time>
      </trkpt>
      <trkpt lat="48.39631" lon="2.37211">
        <ele>155.66808</ele>
        <time>2012-07-01T09:18:49Z</time>
      </trkpt>
      <trkpt lat="48.39633" lon="2.37184">
        <ele>157.60606</ele>
        <time>2012-07-01T09:19:01Z</time>
      </trkpt>
      <trkpt lat="48.39639" lon="2.37155">
        <ele>158.20517</ele>
        <time>2012-07-01T09:19:13Z</time>
      </trkpt>
      <trkpt lat="48.39652" lon="2.37134">
        <ele>158.93086</ele>
        <time>2012-07-01T09:19:23Z</time>
      </trkpt>
      <trkpt lat="48.39664" lon="2.37114">
        <ele>158.87393</ele>
        <time>2012-07-01T09:19:33Z</time>
      </trkpt>
      <trkpt lat="48.39675" lon="2.37092">
        <ele>159.50134</ele>
        <time>2012-07-01T09:19:41Z</time>
      </trkpt>
      <trkpt lat="48.39687" lon="2.37069">
        <ele>159.52586</ele>
        <time>2012-07-01T09:19:50Z</time>
      </trkpt>
      <trkpt lat="48.39702" lon="2.37048">
        <ele>159.68727</ele>
        <time>2012-07-01T09:19:56Z</time>
      </trkpt>
      <trkpt lat="48.39703" lon="2.37021">
        <ele>160.64784</ele>
        <time>2012-07-01T09:20:06Z</time>
      </trkpt>
      <trkpt lat="48.39688" lon="2.37006">
        <ele>160.9106</ele>
        <time>2012-07-01T09:20:23Z</time>
      </trkpt>
      <trkpt lat="48.39673" lon="2.36991">
        <ele>166.18295</ele>
        <time>2012-07-01T09:21:03Z</time>
      </trkpt>
      <trkpt lat="48.39653" lon="2.36982">
        <ele>166.97264</ele>
        <time>2012-07-01T09:21:16Z</time>
      </trkpt>
      <trkpt lat="48.39635" lon="2.36975">
        <ele>166.1317</ele>
        <time>2012-07-01T09:21:27Z</time>
      </trkpt>
      <trkpt lat="48.39617" lon="2.36982">
        <ele>165.77368</ele>
        <time>2012-07-01T09:21:34Z</time>
      </trkpt>
      <trkpt lat="48.39595" lon="2.36987">
        <ele>165.72672</ele>
        <time>2012-07-01T09:21:40Z</time>
      </trkpt>
      <trkpt lat="48.39576" lon="2.36992">
        <ele>164.88834</ele>
        <time>2012-07-01T09:21:48Z</time>
      </trkpt>
      <trkpt lat="48.39556" lon="2.36997">
        <ele>164.95268</ele>
        <time>2012-07-01T09:21:56Z</time>
      </trkpt>
      <trkpt lat="48.39538" lon="2.37002">
        <ele>165.02676</ele>
        <time>2012-07-01T09:22:01Z</time>
      </trkpt>
      <trkpt lat="48.39534" lon="2.37034">
        <ele>164.41925</ele>
        <time>2012-07-01T09:22:11Z</time>
      </trkpt>
      <trkpt lat="48.39526" lon="2.37061">
        <ele>162.60776</ele>
        <time>2012-07-01T09:22:18Z</time>
      </trkpt>
      <trkpt lat="48.39507" lon="2.37059">
        <ele>162.2769</ele>
        <time>2012-07-01T09:22:25Z</time>
      </trkpt>
      <trkpt lat="48.39489" lon="2.37042">
        <ele>161.19154</ele>
        <time>2012-07-01T09:22:31Z</time>
      </trkpt>
      <trkpt lat="48.39471" lon="2.37055">
        <ele>161.20183</ele>
        <time>2012-07-01T09:22:38Z</time>
      </trkpt>
      <trkpt lat="48.3946" lon="2.37077">
        <ele>158.79529</ele>
        <time>2012-07-01T09:22:49Z</time>
      </trkpt>
      <trkpt lat="48.39465" lon="2.37103">
        <ele>158.56677</ele>
        <time>2012-07-01T09:22:56Z</time>
      </trkpt>
      <trkpt lat="48.39466" lon="2.37134">
        <ele>157.29489</ele>
        <time>2012-07-01T09:23:03Z</time>
      </trkpt>
      <trkpt lat="48.39476" lon="2.37166">
        <ele>155.74323</ele>
        <time>2012-07-01T09:23:08Z</time>
      </trkpt>
      <trkpt lat="48.39475" lon="2.372">
        <ele>154.10938</ele>
        <time>2012-07-01T09:23:12Z</time>
      </trkpt>
      <trkpt lat="48.39464" lon="2.37227">
        <ele>152.59302</ele>
        <time>2012-07-01T09:23:15Z</time>
      </trkpt>
      <trkpt lat="48.3945" lon="2.37258">
        <ele>150.75018</ele>
        <time>2012-07-01T09:23:18Z</time>
      </trkpt>
      <trkpt lat="48.39438" lon="2.37287">
        <ele>147.7233</ele>
        <time>2012-07-01T09:23:22Z</time>
      </trkpt>
      <trkpt lat="48.39424" lon="2.37311">
        <ele>145.09877</ele>
        <time>2012-07-01T09:23:26Z</time>
      </trkpt>
      <trkpt lat="48.39412" lon="2.37334">
        <ele>142.2291</ele>
        <time>2012-07-01T09:23:31Z</time>
      </trkpt>
      <trkpt lat="48.39399" lon="2.37354">
        <ele>138.68687</ele>
        <time>2012-07-01T09:23:37Z</time>
      </trkpt>
      <trkpt lat="48.39383" lon="2.37369">
        <ele>137.06812</ele>
        <time>2012-07-01T09:23:45Z</time>
      </trkpt>
      <trkpt lat="48.39373" lon="2.37345">
        <ele>134.8856</ele>
        <time>2012-07-01T09:23:55Z</time>
      </trkpt>
      <trkpt lat="48.39364" lon="2.37321">
        <ele>132.62561</ele>
        <time>2012-07-01T09:24:07Z</time>
      </trkpt>
      <trkpt lat="48.39355" lon="2.37297">
        <ele>131.3534</ele>
        <time>2012-07-01T09:24:17Z</time>
      </trkpt>
      <trkpt lat="48.39345" lon="2.37272">
        <ele>130.74043</ele>
        <time>2012-07-01T09:24:25Z</time>
      </trkpt>
      <trkpt lat="48.39327" lon="2.37259">
        <ele>128.77516</ele>
        <time>2012-07-01T09:24:34Z</time>
      </trkpt>
      <trkpt lat="48.39306" lon="2.37255">
        <ele>127.202354</ele>
        <time>2012-07-01T09:24:42Z</time>
      </trkpt>
      <trkpt lat="48.39286" lon="2.37249">
        <ele>126.017815</ele>
        <time>2012-07-01T09:24:50Z</time>
      </trkpt>
      <trkpt lat="48.39269" lon="2.37241">
        <ele>125.352875</ele>
        <time>2012-07-01T09:24:56Z</time>
      </trkpt>
      <trkpt lat="48.3925" lon="2.37231">
        <ele>124.544785</ele>
        <time>2012-07-01T09:25:02Z</time>
      </trkpt>
      <trkpt lat="48.39233" lon="2.37222">
        <ele>124.143005</ele>
        <time>2012-07-01T09:25:08Z</time>
      </trkpt>
      <trkpt lat="48.39212" lon="2.37213">
        <ele>123.1302</ele>
        <time>2012-07-01T09:25:14Z</time>
      </trkpt>
      <trkpt lat="48.39194" lon="2.37218">
        <ele>121.825096</ele>
        <time>2012-07-01T09:25:20Z</time>
      </trkpt>
      <trkpt lat="48.39184" lon="2.37241">
        <ele>120.33489</ele>
        <time>2012-07-01T09:25:24Z</time>
      </trkpt>
      <trkpt lat="48.39172" lon="2.37268">
        <ele>119.20441</ele>
        <time>2012-07-01T09:25:28Z</time>
      </trkpt>
      <trkpt lat="48.3916" lon="2.37298">
        <ele>118.303734</ele>
        <time>2012-07-01T09:25:32Z</time>
      </trkpt>
      <trkpt lat="48.39154" lon="2.3733">
        <ele>117.56954</ele>
        <time>2012-07-01T09:25:36Z</time>
      </trkpt>
      <trkpt lat="48.39148" lon="2.37359">
        <ele>116.96029</ele>
        <time>2012-07-01T09:25:40Z</time>
      </trkpt>
      <trkpt lat="48.39132" lon="2.37372">
        <ele>116.19838</ele>
        <time>2012-07-01T09:25:44Z</time>
      </trkpt>
      <trkpt lat="48.39116" lon="2.37387">
        <ele>115.45568</ele>
        <time>2012-07-01T09:25:52Z</time>
      </trkpt>
      <trkpt lat="48.391" lon="2.374">
        <ele>115.19163</ele>
        <time>2012-07-01T09:25:57Z</time>
      </trkpt>
      <trkpt lat="48.3908" lon="2.37413">
        <ele>114.65426</ele>
        <time>2012-07-01T09:26:02Z</time>
      </trkpt>
      <trkpt lat="48.39059" lon="2.37415">
        <ele>114.02263</ele>
        <time>2012-07-01T09:26:06Z</time>
      </trkpt>
      <trkpt lat="48.39037" lon="2.37412">
        <ele>113.98685</ele>
        <time>2012-07-01T09:26:10Z</time>
      </trkpt>
      <trkpt lat="48.39019" lon="2.37411">
        <ele>114.24506</ele>
        <time>2012-07-01T09:26:14Z</time>
      </trkpt>
      <trkpt lat="48.38998" lon="2.3741">
        <ele>114.83467</ele>
        <time>2012-07-01T09:26:20Z</time>
      </trkpt>
      <trkpt lat="48.38982" lon="2.37424">
        <ele>115.47298</ele>
        <time>2012-07-01T09:26:27Z</time>
      </trkpt>
      <trkpt lat="48.38986" lon="2.37452">
        <ele>115.73566</ele>
        <time>2012-07-01T09:26:33Z</time>
      </trkpt>
      <trkpt lat="48.38968" lon="2.37454">
        <ele>117.27131</ele>
        <time>2012-07-01T09:26:50Z</time>
      </trkpt>
      <trkpt lat="48.38957" lon="2.37428">
        <ele>117.81457</ele>
        <time>2012-07-01T09:26:57Z</time>
      </trkpt>
      <trkpt lat="48.38949" lon="2.37403">
        <ele>118.397964</ele>
        <time>2012-07-01T09:27:03Z</time>
      </trkpt>
      <trkpt lat="48.38941" lon="2.37375">
        <ele>118.89988</ele>
        <time>2012-07-01T09:27:10Z</time>
      </trkpt>
      <trkpt lat="48.38932" lon="2.37347">
        <ele>118.64527</ele>
        <time>2012-07-01T09:27:16Z</time>
      </trkpt>
      <trkpt lat="48.38922" lon="2.37325">
        <ele>119.86406</ele>
        <time>2012-07-01T09:27:24Z</time>
      </trkpt>
      <trkpt lat="48.38909" lon="2.37302">
        <ele>120.18555</ele>
        <time>2012-07-01T09:27:33Z</time>
      </trkpt>
      <trkpt lat="48.38904" lon="2.37276">
        <ele>120.38369</ele>
        <time>2012-07-01T09:27:41Z</time>
      </trkpt>
      <trkpt lat="48.38899" lon="2.37247">
        <ele>123.00277</ele>
        <time>2012-07-01T09:27:50Z</time>
      </trkpt>
      <trkpt lat="48.38888" lon="2.37225">
        <ele>125.803154</ele>
        <time>2012-07-01T09:28:02Z</time>
      </trkpt>
      <trkpt lat="48.38879" lon="2.37201">
        <ele>127.58517</ele>
        <time>2012-07-01T09:28:12Z</time>
      </trkpt>
      <trkpt lat="48.3887" lon="2.37177">
        <ele>130.9147</ele>
        <time>2012-07-01T09:28:24Z</time>
      </trkpt>
      <trkpt lat="48.38858" lon="2.37157">
        <ele>131.5974</ele>
        <time>2012-07-01T09:28:37Z</time>
      </trkpt>
      <trkpt lat="48.38846" lon="2.37136">
        <ele>133.23766</ele>
        <time>2012-07-01T09:28:49Z</time>
      </trkpt>
      <trkpt lat="48.38831" lon="2.37117">
        <ele>134.59541</ele>
        <time>2012-07-01T09:29:00Z</time>
      </trkpt>
      <trkpt lat="48.38815" lon="2.37102">
        <ele>134.5208</ele>
        <time>2012-07-01T09:29:09Z</time>
      </trkpt>
      <trkpt lat="48.38799" lon="2.3709">
        <ele>136.29176</ele>
        <time>2012-07-01T09:29:20Z</time>
      </trkpt>
      <trkpt lat="48.38782" lon="2.37074">
        <ele>138.19337</ele>
        <time>2012-07-01T09:29:27Z</time>
      </trkpt>
      <trkpt lat="48.38767" lon="2.3706">
        <ele>140.65819</ele>
        <time>2012-07-01T09:29:38Z</time>
      </trkpt>
      <trkpt lat="48.38753" lon="2.3704">
        <ele>141.90536</ele>
        <time>2012-07-01T09:29:48Z</time>
      </trkpt>
      <trkpt lat="48.38739" lon="2.37022">
        <ele>143.05986</ele>
        <time>2012-07-01T09:30:00Z</time>
      </trkpt>
      <trkpt lat="48.38727" lon="2.36999">
        <ele>143.8642</ele>
        <time>2012-07-01T09:30:14Z</time>
      </trkpt>
      <trkpt lat="48.38718" lon="2.36975">
        <ele>144.72311</ele>
        <time>2012-07-01T09:30:24Z</time>
      </trkpt>
      <trkpt lat="48.38705" lon="2.36954">
        <ele>145.32921</ele>
        <time>2012-07-01T09:30:35Z</time>
      </trkpt>
      <trkpt lat="48.38692" lon="2.36933">
        <ele>144.30632</ele>
        <time>2012-07-01T09:30:44Z</time>
      </trkpt>
      <trkpt lat="48.38678" lon="2.36912">
        <ele>145.39622</ele>
        <time>2012-07-01T09:30:54Z</time>
      </trkpt>
      <trkpt lat="48.38666" lon="2.36892">
        <ele>148.82713</ele>
        <time>2012-07-01T09:31:04Z</time>
      </trkpt>
      <trkpt lat="48.38654" lon="2.36871">
        <ele>150.03648</ele>
        <time>2012-07-01T09:31:15Z</time>
      </trkpt>
      <trkpt lat="48.38643" lon="2.36848">
        <ele>152.32555</ele>
        <time>2012-07-01T09:31:26Z</time>
      </trkpt>
      <trkpt lat="48.38628" lon="2.36832">
        <ele>154.0885</ele>
        <time>2012-07-01T09:31:37Z</time>
      </trkpt>
      <trkpt lat="48.38611" lon="2.36819">
        <ele>156.47765</ele>
        <time>2012-07-01T09:31:49Z</time>
      </trkpt>
      <trkpt lat="48.38597" lon="2.368">
        <ele>156.92348</ele>
        <time>2012-07-01T09:31:59Z</time>
      </trkpt>
      <trkpt lat="48.38582" lon="2.36782">
        <ele>158.1313</ele>
        <time>2012-07-01T09:32:10Z</time>
      </trkpt>
      <trkpt lat="48.38566" lon="2.3677">
        <ele>159.67635</ele>
        <time>2012-07-01T09:32:20Z</time>
      </trkpt>
      <trkpt lat="48.38548" lon="2.36759">
        <ele>161.81798</ele>
        <time>2012-07-01T09:32:31Z</time>
      </trkpt>
      <trkpt lat="48.38529" lon="2.3675">
        <ele>162.90768</ele>
        <time>2012-07-01T09:32:42Z</time>
      </trkpt>
      <trkpt lat="48.38511" lon="2.36742">
        <ele>163.50812</ele>
        <time>2012-07-01T09:32:51Z</time>
      </trkpt>
      <trkpt lat="48.38494" lon="2.36734">
        <ele>164.47675</ele>
        <time>2012-07-01T09:33:00Z</time>
      </trkpt>
      <trkpt lat="48.38475" lon="2.36722">
        <ele>165.45265</ele>
        <time>2012-07-01T09:33:08Z</time>
      </trkpt>
      <trkpt lat="48.38459" lon="2.36704">
        <ele>165.54227</ele>
        <time>2012-07-01T09:33:15Z</time>
      </trkpt>
      <trkpt lat="48.38443" lon="2.36687">
        <ele>166.24516</ele>
        <time>2012-07-01T09:33:22Z</time>
      </trkpt>
      <trkpt lat="48.38427" lon="2.36669">
        <ele>166.43318</ele>
        <time>2012-07-01T09:33:29Z</time>
      </trkpt>
      <trkpt lat="48.38411" lon="2.36651">
        <ele>166.76566</ele>
        <time>2012-07-01T09:33:36Z</time>
      </trkpt>
      <trkpt lat="48.38395" lon="2.36633">
        <ele>166.94641</ele>
        <time>2012-07-01T09:33:43Z</time>
      </trkpt>
      <trkpt lat="48.38379" lon="2.36614">
        <ele>167.97449</ele>
        <time>2012-07-01T09:33:50Z</time>
      </trkpt>
      <trkpt lat="48.38363" lon="2.36595">
        <ele>169.15755</ele>
        <time>2012-07-01T09:33:57Z</time>
      </trkpt>
      <trkpt lat="48.38348" lon="2.36578">
        <ele>169.38187</ele>
        <time>2012-07-01T09:34:03Z</time>
      </trkpt>
      <trkpt lat="48.38335" lon="2.36559">
        <ele>169.19029</ele>
        <time>2012-07-01T09:34:09Z</time>
      </trkpt>
      <trkpt lat="48.38322" lon="2.3654">
        <ele>168.28694</ele>
        <time>2012-07-01T09:34:15Z</time>
      </trkpt>
      <trkpt lat="48.38309" lon="2.36518">
        <ele>168.42053</ele>
        <time>2012-07-01T09:34:22Z</time>
      </trkpt>
      <trkpt lat="48.38296" lon="2.36496">
        <ele>169.02269</ele>
        <time>2012-07-01T09:34:29Z</time>
      </trkpt>
      <trkpt lat="48.38282" lon="2.36474">
        <ele>169.33174</ele>
        <time>2012-07-01T09:34:36Z</time>
      </trkpt>
      <trkpt lat="48.38268" lon="2.36451">
        <ele>169.74022</ele>
        <time>2012-07-01T09:34:43Z</time>
      </trkpt>
      <trkpt lat="48.38256" lon="2.3643">
        <ele>169.86276</ele>
        <time>2012-07-01T09:34:51Z</time>
      </trkpt>
      <trkpt lat="48.38268" lon="2.36452">
        <ele>170.08661</ele>
        <time>2012-07-01T09:36:03Z</time>
      </trkpt>
      <trkpt lat="48.38282" lon="2.36476">
        <ele>169.18205</ele>
        <time>2012-07-01T09:36:13Z</time>
      </trkpt>
      <trkpt lat="48.38295" lon="2.36497">
        <ele>168.89832</ele>
        <time>2012-07-01T09:36:19Z</time>
      </trkpt>
      <trkpt lat="48.38309" lon="2.36519">
        <ele>168.81749</ele>
        <time>2012-07-01T09:36:25Z</time>
      </trkpt>
      <trkpt lat="48.38321" lon="2.36539">
        <ele>168.77914</ele>
        <time>2012-07-01T09:36:30Z</time>
      </trkpt>
      <trkpt lat="48.38335" lon="2.3656">
        <ele>168.6675</ele>
        <time>2012-07-01T09:36:35Z</time>
      </trkpt>
      <trkpt lat="48.38348" lon="2.36579">
        <ele>168.69229</ele>
        <time>2012-07-01T09:36:40Z</time>
      </trkpt>
      <trkpt lat="48.38363" lon="2.36597">
        <ele>168.22162</ele>
        <time>2012-07-01T09:36:45Z</time>
      </trkpt>
      <trkpt lat="48.38378" lon="2.36615">
        <ele>168.06314</ele>
        <time>2012-07-01T09:36:50Z</time>
      </trkpt>
      <trkpt lat="48.38394" lon="2.36633">
        <ele>167.84506</ele>
        <time>2012-07-01T09:36:55Z</time>
      </trkpt>
      <trkpt lat="48.38409" lon="2.3665">
        <ele>167.72787</ele>
        <time>2012-07-01T09:37:00Z</time>
      </trkpt>
      <trkpt lat="48.38424" lon="2.36666">
        <ele>167.52948</ele>
        <time>2012-07-01T09:37:05Z</time>
      </trkpt>
      <trkpt lat="48.38439" lon="2.36683">
        <ele>167.55074</ele>
        <time>2012-07-01T09:37:10Z</time>
      </trkpt>
      <trkpt lat="48.38455" lon="2.36702">
        <ele>167.76376</ele>
        <time>2012-07-01T09:37:16Z</time>
      </trkpt>
      <trkpt lat="48.3847" lon="2.36717">
        <ele>167.57802</ele>
        <time>2012-07-01T09:37:21Z</time>
      </trkpt>
      <trkpt lat="48.38487" lon="2.3673">
        <ele>167.06636</ele>
        <time>2012-07-01T09:37:26Z</time>
      </trkpt>
      <trkpt lat="48.38504" lon="2.3674">
        <ele>166.61662</ele>
        <time>2012-07-01T09:37:31Z</time>
      </trkpt>
      <trkpt lat="48.38524" lon="2.36749">
        <ele>166.06517</ele>
        <time>2012-07-01T09:37:37Z</time>
      </trkpt>
      <trkpt lat="48.38542" lon="2.36757">
        <ele>165.5511</ele>
        <time>2012-07-01T09:37:43Z</time>
      </trkpt>
      <trkpt lat="48.38561" lon="2.36766">
        <ele>165.03726</ele>
        <time>2012-07-01T09:37:49Z</time>
      </trkpt>
      <trkpt lat="48.38579" lon="2.3678">
        <ele>164.11803</ele>
        <time>2012-07-01T09:37:54Z</time>
      </trkpt>
      <trkpt lat="48.38595" lon="2.36794">
        <ele>163.33173</ele>
        <time>2012-07-01T09:37:59Z</time>
      </trkpt>
      <trkpt lat="48.38609" lon="2.36812">
        <ele>161.83228</ele>
        <time>2012-07-01T09:38:08Z</time>
      </trkpt>
      <trkpt lat="48.38617" lon="2.36837">
        <ele>161.26149</ele>
        <time>2012-07-01T09:38:20Z</time>
      </trkpt>
      <trkpt lat="48.38631" lon="2.3686">
        <ele>161.71407</ele>
        <time>2012-07-01T09:38:27Z</time>
      </trkpt>
      <trkpt lat="48.38643" lon="2.3688">
        <ele>161.42424</ele>
        <time>2012-07-01T09:38:32Z</time>
      </trkpt>
      <trkpt lat="48.38655" lon="2.36902">
        <ele>160.78476</ele>
        <time>2012-07-01T09:38:38Z</time>
      </trkpt>
      <trkpt lat="48.3867" lon="2.36922">
        <ele>160.51839</ele>
        <time>2012-07-01T09:38:44Z</time>
      </trkpt>
      <trkpt lat="48.38682" lon="2.36945">
        <ele>160.59108</ele>
        <time>2012-07-01T09:38:49Z</time>
      </trkpt>
      <trkpt lat="48.3869" lon="2.36969">
        <ele>160.51788</ele>
        <time>2012-07-01T09:38:53Z</time>
      </trkpt>
      <trkpt lat="48.38698" lon="2.36994">
        <ele>160.34555</ele>
        <time>2012-07-01T09:38:58Z</time>
      </trkpt>
      <trkpt lat="48.3871" lon="2.37016">
        <ele>160.14442</ele>
        <time>2012-07-01T09:39:04Z</time>
      </trkpt>
      <trkpt lat="48.38721" lon="2.37042">
        <ele>159.76738</ele>
        <time>2012-07-01T09:39:11Z</time>
      </trkpt>
      <trkpt lat="48.38732" lon="2.37063">
        <ele>160.23962</ele>
        <time>2012-07-01T09:39:17Z</time>
      </trkpt>
      <trkpt lat="48.38743" lon="2.37088">
        <ele>161.34244</ele>
        <time>2012-07-01T09:39:25Z</time>
      </trkpt>
      <trkpt lat="48.38756" lon="2.37107">
        <ele>160.9398</ele>
        <time>2012-07-01T09:39:33Z</time>
      </trkpt>
      <trkpt lat="48.38773" lon="2.37118">
        <ele>160.71672</ele>
        <time>2012-07-01T09:39:39Z</time>
      </trkpt>
      <trkpt lat="48.38781" lon="2.37144">
        <ele>160.19019</ele>
        <time>2012-07-01T09:39:46Z</time>
      </trkpt>
      <trkpt lat="48.38787" lon="2.37171">
        <ele>160.72765</ele>
        <time>2012-07-01T09:39:54Z</time>
      </trkpt>
      <trkpt lat="48.3879" lon="2.37198">
        <ele>160.22656</ele>
        <time>2012-07-01T09:40:00Z</time>
      </trkpt>
      <trkpt lat="48.38798" lon="2.37227">
        <ele>160.61285</ele>
        <time>2012-07-01T09:40:07Z</time>
      </trkpt>
      <trkpt lat="48.38808" lon="2.3725">
        <ele>161.73708</ele>
        <time>2012-07-01T09:40:13Z</time>
      </trkpt>
      <trkpt lat="48.38812" lon="2.37281">
        <ele>163.24515</ele>
        <time>2012-07-01T09:40:21Z</time>
      </trkpt>
      <trkpt lat="48.38812" lon="2.37311">
        <ele>163.32292</ele>
        <time>2012-07-01T09:40:26Z</time>
      </trkpt>
      <trkpt lat="48.3882" lon="2.37339">
        <ele>162.44275</ele>
        <time>2012-07-01T09:40:31Z</time>
      </trkpt>
      <trkpt lat="48.38828" lon="2.37363">
        <ele>161.81952</ele>
        <time>2012-07-01T09:40:36Z</time>
      </trkpt>
      <trkpt lat="48.38816" lon="2.37385">
        <ele>161.1298</ele>
        <time>2012-07-01T09:40:44Z</time>
      </trkpt>
      <trkpt lat="48.38799" lon="2.37398">
        <ele>159.93295</ele>
        <time>2012-07-01T09:40:49Z</time>
      </trkpt>
      <trkpt lat="48.38801" lon="2.37429">
        <ele>158.81268</ele>
        <time>2012-07-01T09:40:59Z</time>
      </trkpt>
      <trkpt lat="48.38785" lon="2.37446">
        <ele>158.54512</ele>
        <time>2012-07-01T09:41:07Z</time>
      </trkpt>
      <trkpt lat="48.38772" lon="2.3747">
        <ele>156.52089</ele>
        <time>2012-07-01T09:41:15Z</time>
      </trkpt>
      <trkpt lat="48.38757" lon="2.37489">
        <ele>154.65121</ele>
        <time>2012-07-01T09:41:21Z</time>
      </trkpt>
      <trkpt lat="48.38745" lon="2.37511">
        <ele>152.23056</ele>
        <time>2012-07-01T09:41:29Z</time>
      </trkpt>
      <trkpt lat="48.38732" lon="2.37531">
        <ele>148.22002</ele>
        <time>2012-07-01T09:41:43Z</time>
      </trkpt>
      <trkpt lat="48.38732" lon="2.37503">
        <ele>143.81593</ele>
        <time>2012-07-01T09:42:17Z</time>
      </trkpt>
      <trkpt lat="48.38728" lon="2.37475">
        <ele>144.41515</ele>
        <time>2012-07-01T09:42:34Z</time>
      </trkpt>
      <trkpt lat="48.3873" lon="2.37448">
        <ele>149.54984</ele>
        <time>2012-07-01T09:43:15Z</time>
      </trkpt>
      <trkpt lat="48.38721" lon="2.37423">
        <ele>154.56577</ele>
        <time>2012-07-01T09:43:42Z</time>
      </trkpt>
      <trkpt lat="48.38705" lon="2.37412">
        <ele>156.62862</ele>
        <time>2012-07-01T09:44:03Z</time>
      </trkpt>
      <trkpt lat="48.3869" lon="2.37396">
        <ele>157.61958</ele>
        <time>2012-07-01T09:44:55Z</time>
      </trkpt>
      <trkpt lat="48.38682" lon="2.37368">
        <ele>154.36884</ele>
        <time>2012-07-01T09:47:02Z</time>
      </trkpt>
      <trkpt lat="48.38676" lon="2.37342">
        <ele>155.718</ele>
        <time>2012-07-01T09:47:12Z</time>
      </trkpt>
      <trkpt lat="48.38666" lon="2.3732">
        <ele>157.86783</ele>
        <time>2012-07-01T09:47:24Z</time>
      </trkpt>
      <trkpt lat="48.38658" lon="2.37294">
        <ele>158.76959</ele>
        <time>2012-07-01T09:47:36Z</time>
      </trkpt>
      <trkpt lat="48.38652" lon="2.37268">
        <ele>159.89044</ele>
        <time>2012-07-01T09:47:43Z</time>
      </trkpt>
      <trkpt lat="48.38647" lon="2.37238">
        <ele>160.50114</ele>
        <time>2012-07-01T09:47:50Z</time>
      </trkpt>
      <trkpt lat="48.38645" lon="2.3721">
        <ele>161.66806</ele>
        <time>2012-07-01T09:47:57Z</time>
      </trkpt>
      <trkpt lat="48.38645" lon="2.3718">
        <ele>163.89879</ele>
        <time>2012-07-01T09:48:05Z</time>
      </trkpt>
      <trkpt lat="48.38645" lon="2.37151">
        <ele>165.47435</ele>
        <time>2012-07-01T09:48:13Z</time>
      </trkpt>
      <trkpt lat="48.38627" lon="2.37157">
        <ele>166.99168</ele>
        <time>2012-07-01T09:48:26Z</time>
      </trkpt>
      <trkpt lat="48.38609" lon="2.37171">
        <ele>166.81956</ele>
        <time>2012-07-01T09:48:33Z</time>
      </trkpt>
      <trkpt lat="48.38595" lon="2.3719">
        <ele>166.51334</ele>
        <time>2012-07-01T09:48:38Z</time>
      </trkpt>
      <trkpt lat="48.3859" lon="2.37216">
        <ele>166.35103</ele>
        <time>2012-07-01T09:48:43Z</time>
      </trkpt>
      <trkpt lat="48.38588" lon="2.37247">
        <ele>166.056</ele>
        <time>2012-07-01T09:48:47Z</time>
      </trkpt>
      <trkpt lat="48.38588" lon="2.37278">
        <ele>165.82646</ele>
        <time>2012-07-01T09:48:52Z</time>
      </trkpt>
      <trkpt lat="48.38587" lon="2.37308">
        <ele>164.27861</ele>
        <time>2012-07-01T09:48:59Z</time>
      </trkpt>
      <trkpt lat="48.38594" lon="2.37334">
        <ele>161.60881</ele>
        <time>2012-07-01T09:49:07Z</time>
      </trkpt>
      <trkpt lat="48.38596" lon="2.37362">
        <ele>160.34923</ele>
        <time>2012-07-01T09:49:16Z</time>
      </trkpt>
      <trkpt lat="48.38602" lon="2.3739">
        <ele>157.89227</ele>
        <time>2012-07-01T09:49:29Z</time>
      </trkpt>
      <trkpt lat="48.38611" lon="2.37416">
        <ele>153.79161</ele>
        <time>2012-07-01T09:49:36Z</time>
      </trkpt>
      <trkpt lat="48.38595" lon="2.37405">
        <ele>149.30975</ele>
        <time>2012-07-01T09:49:48Z</time>
      </trkpt>
      <trkpt lat="48.38578" lon="2.37395">
        <ele>147.29106</ele>
        <time>2012-07-01T09:49:54Z</time>
      </trkpt>
      <trkpt lat="48.38561" lon="2.37385">
        <ele>145.12212</ele>
        <time>2012-07-01T09:50:00Z</time>
      </trkpt>
      <trkpt lat="48.38542" lon="2.37379">
        <ele>144.61652</ele>
        <time>2012-07-01T09:50:07Z</time>
      </trkpt>
      <trkpt lat="48.38524" lon="2.37366">
        <ele>145.58769</ele>
        <time>2012-07-01T09:50:15Z</time>
      </trkpt>
      <trkpt lat="48.38509" lon="2.37349">
        <ele>145.7738</ele>
        <time>2012-07-01T09:50:24Z</time>
      </trkpt>
      <trkpt lat="48.38493" lon="2.37334">
        <ele>144.43916</ele>
        <time>2012-07-01T09:50:32Z</time>
      </trkpt>
      <trkpt lat="48.38479" lon="2.37314">
        <ele>144.1128</ele>
        <time>2012-07-01T09:50:42Z</time>
      </trkpt>
      <trkpt lat="48.38465" lon="2.37294">
        <ele>143.76982</ele>
        <time>2012-07-01T09:50:51Z</time>
      </trkpt>
      <trkpt lat="48.3845" lon="2.37279">
        <ele>142.95589</ele>
        <time>2012-07-01T09:50:57Z</time>
      </trkpt>
      <trkpt lat="48.38437" lon="2.3726">
        <ele>142.94919</ele>
        <time>2012-07-01T09:51:04Z</time>
      </trkpt>
      <trkpt lat="48.38419" lon="2.37247">
        <ele>142.60619</ele>
        <time>2012-07-01T09:51:08Z</time>
      </trkpt>
      <trkpt lat="48.38404" lon="2.37228">
        <ele>142.64961</ele>
        <time>2012-07-01T09:51:13Z</time>
      </trkpt>
      <trkpt lat="48.38385" lon="2.37221">
        <ele>142.91814</ele>
        <time>2012-07-01T09:51:20Z</time>
      </trkpt>
      <trkpt lat="48.38364" lon="2.37218">
        <ele>143.15637</ele>
        <time>2012-07-01T09:51:26Z</time>
      </trkpt>
      <trkpt lat="48.38344" lon="2.37214">
        <ele>142.57916</ele>
        <time>2012-07-01T09:51:30Z</time>
      </trkpt>
      <trkpt lat="48.38329" lon="2.37193">
        <ele>141.8429</ele>
        <time>2012-07-01T09:51:35Z</time>
      </trkpt>
      <trkpt lat="48.38313" lon="2.37171">
        <ele>141.1843</ele>
        <time>2012-07-01T09:51:40Z</time>
      </trkpt>
      <trkpt lat="48.38299" lon="2.37154">
        <ele>140.237</ele>
        <time>2012-07-01T09:51:46Z</time>
      </trkpt>
      <trkpt lat="48.38278" lon="2.37148">
        <ele>139.04062</ele>
        <time>2012-07-01T09:51:50Z</time>
      </trkpt>
      <trkpt lat="48.38258" lon="2.37142">
        <ele>137.64232</ele>
        <time>2012-07-01T09:51:56Z</time>
      </trkpt>
      <trkpt lat="48.38234" lon="2.37142">
        <ele>135.07219</ele>
        <time>2012-07-01T09:52:20Z</time>
      </trkpt>
      <trkpt lat="48.38214" lon="2.37136">
        <ele>132.94908</ele>
        <time>2012-07-01T09:52:27Z</time>
      </trkpt>
      <trkpt lat="48.38195" lon="2.37131">
        <ele>130.8332</ele>
        <time>2012-07-01T09:52:30Z</time>
      </trkpt>
      <trkpt lat="48.38174" lon="2.37129">
        <ele>127.97956</ele>
        <time>2012-07-01T09:52:35Z</time>
      </trkpt>
      <trkpt lat="48.38171" lon="2.37156">
        <ele>123.43764</ele>
        <time>2012-07-01T09:52:42Z</time>
      </trkpt>
      <trkpt lat="48.38173" lon="2.37185">
        <ele>121.89263</ele>
        <time>2012-07-01T09:52:49Z</time>
      </trkpt>
      <trkpt lat="48.38174" lon="2.37214">
        <ele>122.0066</ele>
        <time>2012-07-01T09:52:55Z</time>
      </trkpt>
      <trkpt lat="48.38174" lon="2.37242">
        <ele>121.90723</ele>
        <time>2012-07-01T09:53:01Z</time>
      </trkpt>
      <trkpt lat="48.38178" lon="2.37271">
        <ele>121.3935</ele>
        <time>2012-07-01T09:53:06Z</time>
      </trkpt>
      <trkpt lat="48.38189" lon="2.37296">
        <ele>120.4922</ele>
        <time>2012-07-01T09:53:11Z</time>
      </trkpt>
      <trkpt lat="48.382" lon="2.37324">
        <ele>119.878426</ele>
        <time>2012-07-01T09:53:16Z</time>
      </trkpt>
      <trkpt lat="48.3821" lon="2.37348">
        <ele>119.06035</ele>
        <time>2012-07-01T09:53:20Z</time>
      </trkpt>
      <trkpt lat="48.38218" lon="2.37373">
        <ele>118.35581</ele>
        <time>2012-07-01T09:53:24Z</time>
      </trkpt>
      <trkpt lat="48.3822" lon="2.37407">
        <ele>117.56103</ele>
        <time>2012-07-01T09:53:28Z</time>
      </trkpt>
      <trkpt lat="48.3822" lon="2.37434">
        <ele>116.722626</ele>
        <time>2012-07-01T09:53:31Z</time>
      </trkpt>
      <trkpt lat="48.38219" lon="2.37468">
        <ele>116.02279</ele>
        <time>2012-07-01T09:53:35Z</time>
      </trkpt>
      <trkpt lat="48.3822" lon="2.37496">
        <ele>115.76429</ele>
        <time>2012-07-01T09:53:38Z</time>
      </trkpt>
      <trkpt lat="48.38222" lon="2.37523">
        <ele>115.460976</ele>
        <time>2012-07-01T09:53:42Z</time>
      </trkpt>
      <trkpt lat="48.38222" lon="2.37552">
        <ele>114.4025</ele>
        <time>2012-07-01T09:53:46Z</time>
      </trkpt>
      <trkpt lat="48.38221" lon="2.37585">
        <ele>113.071594</ele>
        <time>2012-07-01T09:53:51Z</time>
      </trkpt>
      <trkpt lat="48.3822" lon="2.37613">
        <ele>112.06758</ele>
        <time>2012-07-01T09:53:55Z</time>
      </trkpt>
      <trkpt lat="48.38221" lon="2.37644">
        <ele>111.9387</ele>
        <time>2012-07-01T09:54:00Z</time>
      </trkpt>
      <trkpt lat="48.38221" lon="2.37673">
        <ele>112.00496</ele>
        <time>2012-07-01T09:54:08Z</time>
      </trkpt>
      <trkpt lat="48.38201" lon="2.37678">
        <ele>112.72421</ele>
        <time>2012-07-01T09:54:17Z</time>
      </trkpt>
      <trkpt lat="48.38181" lon="2.37679">
        <ele>113.346054</ele>
        <time>2012-07-01T09:54:23Z</time>
      </trkpt>
      <trkpt lat="48.38163" lon="2.37681">
        <ele>113.80664</ele>
        <time>2012-07-01T09:54:29Z</time>
      </trkpt>
      <trkpt lat="48.38142" lon="2.37685">
        <ele>114.007256</ele>
        <time>2012-07-01T09:54:36Z</time>
      </trkpt>
      <trkpt lat="48.38134" lon="2.37712">
        <ele>113.888756</ele>
        <time>2012-07-01T09:54:47Z</time>
      </trkpt>
      <trkpt lat="48.38138" lon="2.3774">
        <ele>113.253044</ele>
        <time>2012-07-01T09:54:53Z</time>
      </trkpt>
      <trkpt lat="48.38145" lon="2.37768">
        <ele>112.93596</ele>
        <time>2012-07-01T09:54:59Z</time>
      </trkpt>
      <trkpt lat="48.38149" lon="2.37798">
        <ele>112.2437</ele>
        <time>2012-07-01T09:55:04Z</time>
      </trkpt>
      <trkpt lat="48.38162" lon="2.37819">
        <ele>110.71212</ele>
        <time>2012-07-01T09:55:09Z</time>
      </trkpt>
      <trkpt lat="48.3818" lon="2.3783">
        <ele>110.19564</ele>
        <time>2012-07-01T09:55:13Z</time>
      </trkpt>
      <trkpt lat="48.382" lon="2.37837">
        <ele>109.69897</ele>
        <time>2012-07-01T09:55:18Z</time>
      </trkpt>
      <trkpt lat="48.38218" lon="2.37842">
        <ele>109.19195</ele>
        <time>2012-07-01T09:55:23Z</time>
      </trkpt>
      <trkpt lat="48.38237" lon="2.37846">
        <ele>109.07054</ele>
        <time>2012-07-01T09:55:28Z</time>
      </trkpt>
      <trkpt lat="48.38256" lon="2.37848">
        <ele>109.5601</ele>
        <time>2012-07-01T09:55:33Z</time>
      </trkpt>
      <trkpt lat="48.38275" lon="2.37844">
        <ele>109.60574</ele>
        <time>2012-07-01T09:55:39Z</time>
      </trkpt>
      <trkpt lat="48.38285" lon="2.37817">
        <ele>109.45542</ele>
        <time>2012-07-01T09:55:47Z</time>
      </trkpt>
    </trkseg>
  </trk>
</gpx>